NOAA Web Site Link Tides and Currents Home Page Transparent placeholder image

PORTS® Data Listing: 8632200 Kiptopeke, VA

CO-OPS RAW PORTS DATA

************************      PRELIMINARY DATA      ************************** 

     THIS RAW DATA HAS NOT BEEN SUBJECT TO THE NATIONAL OCEAN SERVICE'S        
     QUALITY CONTROL OR QUALITY ASSURANCE PROCEDURES AND DOES NOT MEET         
     THE CRITERIA AND STANDARDS OF OFFICIAL NATIONAL OCEAN SERVICE             
     DATA.  IT IS RELEASED FOR LIMITED PUBLIC USE AS PRELIMINARY DATA TO       
     BE USED ONLY WITH APPROPRIATE CAUTION.                                    

************************      PRELIMINARY DATA      ************************** 


       CD   -   Calendar date
       T    -   Time
       TZ   -   Timezone
       PW   -   Predicted water level (feet above MLLW)
       OW   -   Observed water level (feet above MLLW)
       WS   -   Wind speed (knots)
       WD   -   Wind direction (degrees true)
       WG   -   Wind gust (knots)
       AT   -   Air temperature (degrees farenheit)
       WT   -   Water temperature (degrees farenheit)
       AP   -   Air pressure (millibars)
       SA   -   Salinty (PSU - Practical Salinity Units)
       SG   -   Specific gravity
       RH   -   Relative humidity
       AG   -   Air gap (feet)
       VI   -   Visibility (nautical miles)

       ** NOTE **
       A variable that has its data fields filled with "9"s, indicates that
       data was not collected for that sample period.
       **********


STATION NAME: Kiptopeke (8632200)
****************************************************************************************************
    CD       T    TZ    PW     OW    WS   WD   WG    AT    WT    AP    SA    SG     RH    AG   VI
****************************************************************************************************
2019/05/18 23:06 EDT    2.84   3.40    8  143   10 -99.9  68.7 -999.9 -9.9 -9.999 -99.9 -99.99 -9.99
2019/05/18 23:12 EDT    2.77   3.34    8  155   10 -99.9  68.7 -999.9 -9.9 -9.999 -99.9 -99.99 -9.99
2019/05/18 23:18 EDT    2.70   3.27    9  155   10 -99.9  68.7 -999.9 -9.9 -9.999 -99.9 -99.99 -9.99
2019/05/18 23:24 EDT    2.63   3.18    9  157   10 -99.9  68.7 -999.9 -9.9 -9.999 -99.9 -99.99 -9.99
2019/05/18 23:30 EDT    2.56   3.11    8  154   11 -99.9  68.7 -999.9 -9.9 -9.999 -99.9 -99.99 -9.99
2019/05/18 23:36 EDT    2.48   3.05    8  159   10 -99.9  68.5 -999.9 -9.9 -9.999 -99.9 -99.99 -9.99
2019/05/18 23:42 EDT    2.40   2.98    8  159   10 -99.9  68.5 -999.9 -9.9 -9.999 -99.9 -99.99 -9.99
2019/05/18 23:48 EDT    2.32   2.90    9  158   10 -99.9  68.4 -999.9 -9.9 -9.999 -99.9 -99.99 -9.99
2019/05/18 23:54 EDT    2.24   2.83    8  160    9 -99.9  68.4 -999.9 -9.9 -9.999 -99.9 -99.99 -9.99
2019/05/19 00:00 EDT    2.16   2.73    8  156    9 -99.9  68.4 -999.9 -9.9 -9.999 -99.9 -99.99 -9.99
2019/05/19 00:06 EDT    2.07   2.67    7  150    9 -99.9  68.4 -999.9 -9.9 -9.999 -99.9 -99.99 -9.99
2019/05/19 00:12 EDT    1.98   2.58    7  152    8 -99.9  68.4 -999.9 -9.9 -9.999 -99.9 -99.99 -9.99
2019/05/19 00:18 EDT    1.89   2.52    7  151    8 -99.9  68.4 -999.9 -9.9 -9.999 -99.9 -99.99 -9.99
2019/05/19 00:24 EDT    1.80   2.42    7  160    8 -99.9  68.4 -999.9 -9.9 -9.999 -99.9 -99.99 -9.99
2019/05/19 00:30 EDT    1.72   2.29    8  161    9 -99.9  68.4 -999.9 -9.9 -9.999 -99.9 -99.99 -9.99
2019/05/19 00:36 EDT    1.63   2.22    8  164   10 -99.9  68.4 -999.9 -9.9 -9.999 -99.9 -99.99 -9.99
2019/05/19 00:42 EDT    1.54   2.14    9  163   10 -99.9  68.4 -999.9 -9.9 -9.999 -99.9 -99.99 -9.99
2019/05/19 00:48 EDT    1.45   2.04    9  164   11 -99.9  68.4 -999.9 -9.9 -9.999 -99.9 -99.99 -9.99
2019/05/19 00:54 EDT    1.36   1.95    9  163   10 -99.9  68.4 -999.9 -9.9 -9.999 -99.9 -99.99 -9.99
2019/05/19 01:00 EDT    1.27   1.87    9  159   10 -99.9  68.4 -999.9 -9.9 -9.999 -99.9 -99.99 -9.99
2019/05/19 01:06 EDT    1.18   1.77    8  156   11 -99.9  68.4 -999.9 -9.9 -9.999 -99.9 -99.99 -9.99
2019/05/19 01:12 EDT    1.10   1.69   10  165   11 -99.9  68.4 -999.9 -9.9 -9.999 -99.9 -99.99 -9.99
2019/05/19 01:18 EDT    1.01   1.60   10  169   11 -99.9  68.4 -999.9 -9.9 -9.999 -99.9 -99.99 -9.99
2019/05/19 01:24 EDT    0.93   1.54   10  171   11 -99.9  68.2 -999.9 -9.9 -9.999 -99.9 -99.99 -9.99
2019/05/19 01:30 EDT    0.85   1.44    9  171   11 -99.9  68.4 -999.9 -9.9 -9.999 -99.9 -99.99 -9.99
2019/05/19 01:36 EDT    0.77   1.36    9  170   11 -99.9  68.4 -999.9 -9.9 -9.999 -99.9 -99.99 -9.99
2019/05/19 01:42 EDT    0.69   1.27    9  168   11 -99.9  68.4 -999.9 -9.9 -9.999 -99.9 -99.99 -9.99
2019/05/19 01:48 EDT    0.62   1.20    9  166   10 -99.9  68.4 -999.9 -9.9 -9.999 -99.9 -99.99 -9.99
2019/05/19 01:54 EDT    0.54   1.12    8  164   10 -99.9  68.4 -999.9 -9.9 -9.999 -99.9 -99.99 -9.99
2019/05/19 02:00 EDT    0.47   1.04   10  161   11 -99.9  68.4 -999.9 -9.9 -9.999 -99.9 -99.99 -9.99
2019/05/19 02:06 EDT    0.41   0.98   10  160   11 -99.9  68.4 -999.9 -9.9 -9.999 -99.9 -99.99 -9.99
2019/05/19 02:12 EDT    0.34   0.93    9  159   11 -99.9  68.4 -999.9 -9.9 -9.999 -99.9 -99.99 -9.99
2019/05/19 02:18 EDT    0.28   0.87    8  161   11 -99.9  68.4 -999.9 -9.9 -9.999 -99.9 -99.99 -9.99
2019/05/19 02:24 EDT    0.22   0.81   10  167   11 -99.9  68.4 -999.9 -9.9 -9.999 -99.9 -99.99 -9.99
2019/05/19 02:30 EDT    0.17   0.76   10  169   11 -99.9  68.2 -999.9 -9.9 -9.999 -99.9 -99.99 -9.99
2019/05/19 02:36 EDT    0.12   0.72   10  167   11 -99.9  68.0 -999.9 -9.9 -9.999 -99.9 -99.99 -9.99
2019/05/19 02:42 EDT    0.07   0.67    9  166   11 -99.9  68.0 -999.9 -9.9 -9.999 -99.9 -99.99 -9.99
2019/05/19 02:48 EDT    0.02   0.60    9  168   11 -99.9  68.0 -999.9 -9.9 -9.999 -99.9 -99.99 -9.99
2019/05/19 02:54 EDT   -0.02   0.58   10  169   11 -99.9  68.0 -999.9 -9.9 -9.999 -99.9 -99.99 -9.99
2019/05/19 03:00 EDT   -0.06   0.52    9  169   11 -99.9  68.0 -999.9 -9.9 -9.999 -99.9 -99.99 -9.99
2019/05/19 03:06 EDT   -0.09   0.49   10  168   11 -99.9  68.0 -999.9 -9.9 -9.999 -99.9 -99.99 -9.99
2019/05/19 03:12 EDT   -0.12   0.45   10  167   12 -99.9  68.0 -999.9 -9.9 -9.999 -99.9 -99.99 -9.99
2019/05/19 03:18 EDT   -0.15   0.41    9  171   11 -99.9  68.0 -999.9 -9.9 -9.999 -99.9 -99.99 -9.99
2019/05/19 03:24 EDT   -0.17   0.39   10  167   11 -99.9  68.0 -999.9 -9.9 -9.999 -99.9 -99.99 -9.99
2019/05/19 03:30 EDT   -0.19   0.39   10  165   11 -99.9  68.0 -999.9 -9.9 -9.999 -99.9 -99.99 -9.99
2019/05/19 03:36 EDT   -0.20   0.40    9  165   11 -99.9  67.8 -999.9 -9.9 -9.999 -99.9 -99.99 -9.99
2019/05/19 03:42 EDT   -0.22   0.41    9  164   11 -99.9  67.8 -999.9 -9.9 -9.999 -99.9 -99.99 -9.99
2019/05/19 03:48 EDT   -0.22   0.41    8  149   11 -99.9  67.8 -999.9 -9.9 -9.999 -99.9 -99.99 -9.99
2019/05/19 03:54 EDT   -0.23   0.41    7  149    8 -99.9  67.8 -999.9 -9.9 -9.999 -99.9 -99.99 -9.99
2019/05/19 04:00 EDT   -0.22   0.41    8  147    9 -99.9  67.8 -999.9 -9.9 -9.999 -99.9 -99.99 -9.99
2019/05/19 04:06 EDT   -0.22   0.42    8  145   10 -99.9  67.8 -999.9 -9.9 -9.999 -99.9 -99.99 -9.99
2019/05/19 04:12 EDT   -0.21   0.42    8  147   10 -99.9  67.8 -999.9 -9.9 -9.999 -99.9 -99.99 -9.99
2019/05/19 04:18 EDT   -0.20   0.44   10  143   11 -99.9  67.8 -999.9 -9.9 -9.999 -99.9 -99.99 -9.99
2019/05/19 04:24 EDT   -0.18   0.45    9  143   11 -99.9  67.8 -999.9 -9.9 -9.999 -99.9 -99.99 -9.99
2019/05/19 04:30 EDT   -0.16   0.46   11  146   12 -99.9  67.8 -999.9 -9.9 -9.999 -99.9 -99.99 -9.99
2019/05/19 04:36 EDT   -0.13   0.48   11  148   13 -99.9  67.8 -999.9 -9.9 -9.999 -99.9 -99.99 -9.99
2019/05/19 04:42 EDT   -0.10   0.48   10  145   11 -99.9  67.8 -999.9 -9.9 -9.999 -99.9 -99.99 -9.99
2019/05/19 04:48 EDT   -0.07   0.51    9  141   12 -99.9  67.8 -999.9 -9.9 -9.999 -99.9 -99.99 -9.99
2019/05/19 04:54 EDT   -0.03   0.54    9  146   11 -99.9  67.8 -999.9 -9.9 -9.999 -99.9 -99.99 -9.99
2019/05/19 05:00 EDT    0.01   0.58   10  151   12 -99.9  67.8 -999.9 -9.9 -9.999 -99.9 -99.99 -9.99
2019/05/19 05:06 EDT    0.06   0.62   10  157   12 -99.9  67.8 -999.9 -9.9 -9.999 -99.9 -99.99 -9.99
2019/05/19 05:12 EDT    0.11   0.66   10  150   12 -99.9  67.8 -999.9 -9.9 -9.999 -99.9 -99.99 -9.99
2019/05/19 05:18 EDT    0.16   0.71   10  155   11 -99.9  67.8 -999.9 -9.9 -9.999 -99.9 -99.99 -9.99
2019/05/19 05:24 EDT    0.21   0.77   10  154   12 -99.9  67.8 -999.9 -9.9 -9.999 -99.9 -99.99 -9.99
2019/05/19 05:30 EDT    0.27   0.81   10  150   11 -99.9  67.8 -999.9 -9.9 -9.999 -99.9 -99.99 -9.99
2019/05/19 05:36 EDT    0.34   0.89    9  146   10 -99.9  67.8 -999.9 -9.9 -9.999 -99.9 -99.99 -9.99
2019/05/19 05:42 EDT    0.40   0.94   10  148   11 -99.9  67.6 -999.9 -9.9 -9.999 -99.9 -99.99 -9.99
2019/05/19 05:48 EDT    0.47   1.03   10  150   11 -99.9  67.6 -999.9 -9.9 -9.999 -99.9 -99.99 -9.99
2019/05/19 05:54 EDT    0.54   1.08   11  149   13 -99.9  67.6 -999.9 -9.9 -9.999 -99.9 -99.99 -9.99
2019/05/19 06:00 EDT    0.61   1.17   11  148   13 -99.9  67.6 -999.9 -9.9 -9.999 -99.9 -99.99 -9.99
2019/05/19 06:06 EDT    0.69   1.24   11  152   13 -99.9  67.5 -999.9 -9.9 -9.999 -99.9 -99.99 -9.99
2019/05/19 06:12 EDT    0.76   1.33   12  150   13 -99.9  67.5 -999.9 -9.9 -9.999 -99.9 -99.99 -9.99
2019/05/19 06:18 EDT    0.84   1.40   11  152   13 -99.9  67.6 -999.9 -9.9 -9.999 -99.9 -99.99 -9.99
2019/05/19 06:24 EDT    0.92   1.49   12  151   13 -99.9  67.6 -999.9 -9.9 -9.999 -99.9 -99.99 -9.99
2019/05/19 06:30 EDT    1.00   1.54   11  154   13 -99.9  67.6 -999.9 -9.9 -9.999 -99.9 -99.99 -9.99
2019/05/19 06:36 EDT    1.08   1.68   11  153   12 -99.9  67.6 -999.9 -9.9 -9.999 -99.9 -99.99 -9.99
2019/05/19 06:42 EDT    1.16   1.74   12  154   13 -99.9  67.5 -999.9 -9.9 -9.999 -99.9 -99.99 -9.99
2019/05/19 06:48 EDT    1.24   1.85   11  155   13 -99.9  67.5 -999.9 -9.9 -9.999 -99.9 -99.99 -9.99
2019/05/19 06:54 EDT    1.32   1.94   12  157   14 -99.9  67.5 -999.9 -9.9 -9.999 -99.9 -99.99 -9.99
2019/05/19 07:00 EDT    1.40   2.02   11  158   14 -99.9  67.5 -999.9 -9.9 -9.999 -99.9 -99.99 -9.99
2019/05/19 07:06 EDT    1.48   2.09   11  160   13 -99.9  67.3 -999.9 -9.9 -9.999 -99.9 -99.99 -9.99
2019/05/19 07:12 EDT    1.56   2.18   11  160   13 -99.9  67.3 -999.9 -9.9 -9.999 -99.9 -99.99 -9.99
2019/05/19 07:18 EDT    1.64   2.28   13  158   15 -99.9  67.3 -999.9 -9.9 -9.999 -99.9 -99.99 -9.99
2019/05/19 07:24 EDT    1.71   2.37   13  164   14 -99.9  67.3 -999.9 -9.9 -9.999 -99.9 -99.99 -9.99
2019/05/19 07:30 EDT    1.79   2.44   12  162   15 -99.9  67.3 -999.9 -9.9 -9.999 -99.9 -99.99 -9.99
2019/05/19 07:36 EDT    1.86   2.51   13  163   14 -99.9  67.3 -999.9 -9.9 -9.999 -99.9 -99.99 -9.99
2019/05/19 07:42 EDT    1.93   2.58   13  165   15 -99.9  67.3 -999.9 -9.9 -9.999 -99.9 -99.99 -9.99
2019/05/19 07:48 EDT    1.99   2.66   14  169   17 -99.9  67.3 -999.9 -9.9 -9.999 -99.9 -99.99 -9.99
2019/05/19 07:54 EDT    2.06   2.74   13  168   15 -99.9  67.3 -999.9 -9.9 -9.999 -99.9 -99.99 -9.99
2019/05/19 08:00 EDT    2.12   2.78   13  173   15 -99.9  67.3 -999.9 -9.9 -9.999 -99.9 -99.99 -9.99
2019/05/19 08:06 EDT    2.18   2.81   13  178   15 -99.9  67.3 -999.9 -9.9 -9.999 -99.9 -99.99 -9.99
2019/05/19 08:12 EDT    2.23   2.88   13  177   15 -99.9  67.3 -999.9 -9.9 -9.999 -99.9 -99.99 -9.99
2019/05/19 08:18 EDT    2.29   2.95   12  174   14 -99.9  67.3 -999.9 -9.9 -9.999 -99.9 -99.99 -9.99
2019/05/19 08:24 EDT    2.34   2.99   12  174   13 -99.9  67.3 -999.9 -9.9 -9.999 -99.9 -99.99 -9.99
2019/05/19 08:30 EDT    2.38   3.04   13  169   14 -99.9  67.3 -999.9 -9.9 -9.999 -99.9 -99.99 -9.99
2019/05/19 08:36 EDT    2.42   3.09   13  170   15 -99.9  67.3 -999.9 -9.9 -9.999 -99.9 -99.99 -9.99
2019/05/19 08:42 EDT    2.46   3.12   12  181   13 -99.9  67.3 -999.9 -9.9 -9.999 -99.9 -99.99 -9.99
2019/05/19 08:48 EDT    2.50   3.14   11  184   13 -99.9  67.3 -999.9 -9.9 -9.999 -99.9 -99.99 -9.99
2019/05/19 08:54 EDT    2.53   3.17   10  180   12 -99.9  67.3 -999.9 -9.9 -9.999 -99.9 -99.99 -9.99
2019/05/19 09:00 EDT    2.56   3.22   11  175   11 -99.9  67.5 -999.9 -9.9 -9.999 -99.9 -99.99 -9.99
2019/05/19 09:06 EDT    2.59   3.25   10  170   11 -99.9  67.5 -999.9 -9.9 -9.999 -99.9 -99.99 -9.99
2019/05/19 09:12 EDT    2.61   3.27   11  168   12 -99.9  67.5 -999.9 -9.9 -9.999 -99.9 -99.99 -9.99
2019/05/19 09:18 EDT    2.63   3.27   11  170   12 -99.9  67.6 -999.9 -9.9 -9.999 -99.9 -99.99 -9.99
2019/05/19 09:24 EDT    2.65   3.30   11  171   12 -99.9  67.6 -999.9 -9.9 -9.999 -99.9 -99.99 -9.99
2019/05/19 09:30 EDT    2.66   3.30   10  171   11 -99.9  67.6 -999.9 -9.9 -9.999 -99.9 -99.99 -9.99
2019/05/19 09:36 EDT    2.67   3.31   10  169   11 -99.9  67.6 -999.9 -9.9 -9.999 -99.9 -99.99 -9.99
2019/05/19 09:42 EDT    2.67   3.31    9  170   11 -99.9  67.8 -999.9 -9.9 -9.999 -99.9 -99.99 -9.99
2019/05/19 09:48 EDT    2.68   3.30    8  171    9 -99.9  67.8 -999.9 -9.9 -9.999 -99.9 -99.99 -9.99
2019/05/19 09:54 EDT    2.67   3.30    8  175    9 -99.9  67.8 -999.9 -9.9 -9.999 -99.9 -99.99 -9.99
2019/05/19 10:00 EDT    2.67   3.30    8  177    9 -99.9  67.8 -999.9 -9.9 -9.999 -99.9 -99.99 -9.99
2019/05/19 10:06 EDT    2.66   3.27    8  178    9 -99.9  68.0 -999.9 -9.9 -9.999 -99.9 -99.99 -9.99
2019/05/19 10:12 EDT    2.65   3.25    9  179   10 -99.9  68.0 -999.9 -9.9 -9.999 -99.9 -99.99 -9.99
2019/05/19 10:18 EDT    2.63   3.21   11  179   11 -99.9  68.0 -999.9 -9.9 -9.999 -99.9 -99.99 -9.99
2019/05/19 10:24 EDT    2.61   3.19   11  171   11 -99.9  68.0 -999.9 -9.9 -9.999 -99.9 -99.99 -9.99
2019/05/19 10:30 EDT    2.59   3.15   10  171   12 -99.9  68.0 -999.9 -9.9 -9.999 -99.9 -99.99 -9.99
2019/05/19 10:36 EDT    2.57   3.11    9  173   11 -99.9  67.8 -999.9 -9.9 -9.999 -99.9 -99.99 -9.99
2019/05/19 10:42 EDT    2.54   3.07    9  175   10 -99.9  67.8 -999.9 -9.9 -9.999 -99.9 -99.99 -9.99
2019/05/19 10:48 EDT    2.51   3.06   10  173   10 -99.9  68.0 -999.9 -9.9 -9.999 -99.9 -99.99 -9.99
2019/05/19 10:54 EDT    2.47   2.98   11  174   11 -99.9  68.0 -999.9 -9.9 -9.999 -99.9 -99.99 -9.99
2019/05/19 11:00 EDT    2.43   2.95   10  174   11 -99.9  68.0 -999.9 -9.9 -9.999 -99.9 -99.99 -9.99
2019/05/19 11:06 EDT    2.39   2.93   11  174   12 -99.9  68.2 -999.9 -9.9 -9.999 -99.9 -99.99 -9.99
2019/05/19 11:12 EDT    2.34   2.87   10  175   12 -99.9  68.2 -999.9 -9.9 -9.999 -99.9 -99.99 -9.99
2019/05/19 11:18 EDT    2.29   2.85   11  174   12 -99.9  68.2 -999.9 -9.9 -9.999 -99.9 -99.99 -9.99
2019/05/19 11:24 EDT    2.24   2.77   10  173   11 -99.9  68.2 -999.9 -9.9 -9.999 -99.9 -99.99 -9.99
2019/05/19 11:30 EDT    2.19   2.71   11  171   11 -99.9  68.2 -999.9 -9.9 -9.999 -99.9 -99.99 -9.99
2019/05/19 11:36 EDT    2.13   2.64   11  172   12 -99.9  68.0 -999.9 -9.9 -9.999 -99.9 -99.99 -9.99
2019/05/19 11:42 EDT    2.07   2.59   13  173   14 -99.9  68.0 -999.9 -9.9 -9.999 -99.9 -99.99 -9.99
2019/05/19 11:48 EDT    2.01   2.52   12  172   13 -99.9  68.0 -999.9 -9.9 -9.999 -99.9 -99.99 -9.99
2019/05/19 11:54 EDT    1.95   2.46   12  178   13 -99.9  68.0 -999.9 -9.9 -9.999 -99.9 -99.99 -9.99
2019/05/19 12:00 EDT    1.88   2.38   12  177   13 -99.9  68.0 -999.9 -9.9 -9.999 -99.9 -99.99 -9.99
2019/05/19 12:06 EDT    1.81   2.31   11  173   13 -99.9  68.0 -999.9 -9.9 -9.999 -99.9 -99.99 -9.99
2019/05/19 12:12 EDT    1.74   2.25   12  174   13 -99.9  68.0 -999.9 -9.9 -9.999 -99.9 -99.99 -9.99
2019/05/19 12:18 EDT    1.67   2.17   10  171   12 -99.9  68.0 -999.9 -9.9 -9.999 -99.9 -99.99 -9.99
2019/05/19 12:24 EDT    1.60   2.08   11  170   12 -99.9  68.0 -999.9 -9.9 -9.999 -99.9 -99.99 -9.99
2019/05/19 12:30 EDT    1.52   2.00   11  169   13 -99.9  67.8 -999.9 -9.9 -9.999 -99.9 -99.99 -9.99
2019/05/19 12:36 EDT    1.45   1.91   10  165   12 -99.9  67.8 -999.9 -9.9 -9.999 -99.9 -99.99 -9.99
2019/05/19 12:42 EDT    1.37   1.83    9  166   11 -99.9  67.8 -999.9 -9.9 -9.999 -99.9 -99.99 -9.99
2019/05/19 12:48 EDT    1.30   1.77    8  169    9 -99.9  67.8 -999.9 -9.9 -9.999 -99.9 -99.99 -9.99
2019/05/19 12:54 EDT    1.22   1.68    9  167   11 -99.9  67.8 -999.9 -9.9 -9.999 -99.9 -99.99 -9.99
2019/05/19 13:00 EDT    1.15   1.61    9  169   10 -99.9  67.6 -999.9 -9.9 -9.999 -99.9 -99.99 -9.99
2019/05/19 13:06 EDT    1.07   1.53    9  170   10 -99.9  67.8 -999.9 -9.9 -9.999 -99.9 -99.99 -9.99
2019/05/19 13:12 EDT    1.00   1.43   10  164   11 -99.9  67.8 -999.9 -9.9 -9.999 -99.9 -99.99 -9.99
2019/05/19 13:18 EDT    0.92   1.36   10  164   13 -99.9  67.8 -999.9 -9.9 -9.999 -99.9 -99.99 -9.99
2019/05/19 13:24 EDT    0.85   1.29   11  142   12 -99.9  67.8 -999.9 -9.9 -9.999 -99.9 -99.99 -9.99
2019/05/19 13:30 EDT    0.78   1.23    9  149   12 -99.9  67.6 -999.9 -9.9 -9.999 -99.9 -99.99 -9.99
2019/05/19 13:36 EDT    0.71   1.14    8  149   11 -99.9  67.6 -999.9 -9.9 -9.999 -99.9 -99.99 -9.99
2019/05/19 13:42 EDT    0.64   1.06    9  149   11 -99.9  67.8 -999.9 -9.9 -9.999 -99.9 -99.99 -9.99
2019/05/19 13:48 EDT    0.57   0.98   11  154   12 -99.9  67.8 -999.9 -9.9 -9.999 -99.9 -99.99 -9.99
2019/05/19 13:54 EDT    0.51   0.93   11  142   13 -99.9  67.8 -999.9 -9.9 -9.999 -99.9 -99.99 -9.99
2019/05/19 14:00 EDT    0.45   0.89   12  146   14 -99.9  67.8 -999.9 -9.9 -9.999 -99.9 -99.99 -9.99
2019/05/19 14:06 EDT    0.39   0.86   12  155   14 -99.9  67.8 -999.9 -9.9 -9.999 -99.9 -99.99 -9.99
2019/05/19 14:12 EDT    0.33   0.80   11  152   15 -99.9  67.8 -999.9 -9.9 -9.999 -99.9 -99.99 -9.99
2019/05/19 14:18 EDT    0.28   0.75   11  152   13 -99.9  67.8 -999.9 -9.9 -9.999 -99.9 -99.99 -9.99
2019/05/19 14:24 EDT    0.23   0.69   13  158   14 -99.9  68.0 -999.9 -9.9 -9.999 -99.9 -99.99 -9.99
2019/05/19 14:30 EDT    0.18   0.65   13  158   16 -99.9  68.2 -999.9 -9.9 -9.999 -99.9 -99.99 -9.99
2019/05/19 14:36 EDT    0.13   0.61   14  156   16 -99.9  68.9 -999.9 -9.9 -9.999 -99.9 -99.99 -9.99
2019/05/19 14:42 EDT    0.09   0.56   14  155   16 -99.9  70.0 -999.9 -9.9 -9.999 -99.9 -99.99 -9.99
2019/05/19 14:48 EDT    0.05   0.53   13  154   17 -99.9  70.7 -999.9 -9.9 -9.999 -99.9 -99.99 -9.99
2019/05/19 14:54 EDT    0.02   0.52   15  156   17 -99.9  70.9 -999.9 -9.9 -9.999 -99.9 -99.99 -9.99
2019/05/19 15:00 EDT   -0.01   0.51   15  157   18 -99.9  71.1 -999.9 -9.9 -9.999 -99.9 -99.99 -9.99
2019/05/19 15:06 EDT   -0.04   0.50   15  155   17 -99.9  71.2 -999.9 -9.9 -9.999 -99.9 -99.99 -9.99
2019/05/19 15:12 EDT   -0.06   0.47   14  156   19 -99.9  71.4 -999.9 -9.9 -9.999 -99.9 -99.99 -9.99
2019/05/19 15:18 EDT   -0.09   0.44   16  156   18 -99.9  71.2 -999.9 -9.9 -9.999 -99.9 -99.99 -9.99
2019/05/19 15:24 EDT   -0.10   0.43   15  158   18 -99.9  71.1 -999.9 -9.9 -9.999 -99.9 -99.99 -9.99
2019/05/19 15:30 EDT   -0.12   0.41   17  158   20 -99.9  71.2 -999.9 -9.9 -9.999 -99.9 -99.99 -9.99
2019/05/19 15:36 EDT   -0.13   0.41   17  159   20 -99.9  71.6 -999.9 -9.9 -9.999 -99.9 -99.99 -9.99
2019/05/19 15:42 EDT   -0.13   0.38   17  158   21 -99.9  71.4 -999.9 -9.9 -9.999 -99.9 -99.99 -9.99
2019/05/19 15:48 EDT   -0.13   0.41   17  158   20 -99.9  71.4 -999.9 -9.9 -9.999 -99.9 -99.99 -9.99
2019/05/19 15:54 EDT   -0.13   0.42   17  158   19 -99.9  71.4 -999.9 -9.9 -9.999 -99.9 -99.99 -9.99
2019/05/19 16:00 EDT   -0.13   0.45   15  160   19 -99.9  71.4 -999.9 -9.9 -9.999 -99.9 -99.99 -9.99
2019/05/19 16:06 EDT   -0.12   0.44   17  157   18 -99.9  71.4 -999.9 -9.9 -9.999 -99.9 -99.99 -9.99
2019/05/19 16:12 EDT   -0.10   0.46   17  162   20 -99.9  71.4 -999.9 -9.9 -9.999 -99.9 -99.99 -9.99
2019/05/19 16:18 EDT   -0.09   0.47   17  162   22 -99.9  71.6 -999.9 -9.9 -9.999 -99.9 -99.99 -9.99
2019/05/19 16:24 EDT   -0.06   0.50   20  159   23 -99.9  71.6 -999.9 -9.9 -9.999 -99.9 -99.99 -9.99
2019/05/19 16:30 EDT   -0.04   0.53   19  161   23 -99.9  72.0 -999.9 -9.9 -9.999 -99.9 -99.99 -9.99
2019/05/19 16:36 EDT   -0.01   0.57   18  161   21 -99.9  72.0 -999.9 -9.9 -9.999 -99.9 -99.99 -9.99
2019/05/19 16:42 EDT    0.02   0.60   17  163   21 -99.9  71.8 -999.9 -9.9 -9.999 -99.9 -99.99 -9.99
2019/05/19 16:48 EDT    0.06   0.64   18  165   21 -99.9  72.0 -999.9 -9.9 -9.999 -99.9 -99.99 -9.99
2019/05/19 16:54 EDT    0.10   0.69   16  170   20 -99.9  72.0 -999.9 -9.9 -9.999 -99.9 -99.99 -9.99
2019/05/19 17:00 EDT    0.15   0.74   17  168   21 -99.9  72.3 -999.9 -9.9 -9.999 -99.9 -99.99 -9.99
2019/05/19 17:06 EDT    0.19   0.80   19  169   21 -99.9  72.3 -999.9 -9.9 -9.999 -99.9 -99.99 -9.99
2019/05/19 17:12 EDT    0.25   0.85   19  167   22 -99.9  72.5 -999.9 -9.9 -9.999 -99.9 -99.99 -9.99
2019/05/19 17:18 EDT    0.30   0.89   17  168   22 -99.9  72.5 -999.9 -9.9 -9.999 -99.9 -99.99 -9.99
2019/05/19 17:24 EDT    0.36   0.95   18  169   22 -99.9  72.7 -999.9 -9.9 -9.999 -99.9 -99.99 -9.99
2019/05/19 17:30 EDT    0.42   1.01   18  170   21 -99.9  72.7 -999.9 -9.9 -9.999 -99.9 -99.99 -9.99
2019/05/19 17:36 EDT    0.49   1.07   19  168   22 -99.9  72.9 -999.9 -9.9 -9.999 -99.9 -99.99 -9.99
2019/05/19 17:42 EDT    0.56   1.13   17  169   22 -99.9  73.2 -999.9 -9.9 -9.999 -99.9 -99.99 -9.99
2019/05/19 17:48 EDT    0.63   1.21   18  171   22 -99.9  73.2 -999.9 -9.9 -9.999 -99.9 -99.99 -9.99
2019/05/19 17:54 EDT    0.71   1.30   19  172   22 -99.9  72.9 -999.9 -9.9 -9.999 -99.9 -99.99 -9.99
2019/05/19 18:00 EDT    0.79   1.38   19  170   23 -99.9  72.1 -999.9 -9.9 -9.999 -99.9 -99.99 -9.99
2019/05/19 18:06 EDT    0.87   1.47   19  171   22 -99.9  72.3 -999.9 -9.9 -9.999 -99.9 -99.99 -9.99
2019/05/19 18:12 EDT    0.95   1.54   18  172   22 -99.9  72.9 -999.9 -9.9 -9.999 -99.9 -99.99 -9.99
2019/05/19 18:18 EDT    1.03   1.63   19  169   21 -99.9  72.5 -999.9 -9.9 -9.999 -99.9 -99.99 -9.99
2019/05/19 18:24 EDT    1.12   1.70   18  170   22 -99.9  72.5 -999.9 -9.9 -9.999 -99.9 -99.99 -9.99
2019/05/19 18:30 EDT    1.21   1.79   18  170   21 -99.9  72.1 -999.9 -9.9 -9.999 -99.9 -99.99 -9.99
2019/05/19 18:36 EDT    1.30   1.88   18  172   21 -99.9  72.0 -999.9 -9.9 -9.999 -99.9 -99.99 -9.99
2019/05/19 18:42 EDT    1.39   1.97   17  171   20 -99.9  71.8 -999.9 -9.9 -9.999 -99.9 -99.99 -9.99
2019/05/19 18:48 EDT    1.48   2.07   18  172   20 -99.9  71.6 -999.9 -9.9 -9.999 -99.9 -99.99 -9.99
2019/05/19 18:54 EDT    1.57   2.16   18  172   21 -99.9  71.6 -999.9 -9.9 -9.999 -99.9 -99.99 -9.99
2019/05/19 19:00 EDT    1.66   2.24   19  172   22 -99.9  71.4 -999.9 -9.9 -9.999 -99.9 -99.99 -9.99
2019/05/19 19:06 EDT    1.75   2.33   18  172   22 -99.9  71.4 -999.9 -9.9 -9.999 -99.9 -99.99 -9.99
2019/05/19 19:12 EDT    1.84   2.43   18  168   20 -99.9  71.4 -999.9 -9.9 -9.999 -99.9 -99.99 -9.99
2019/05/19 19:18 EDT    1.93   2.52   17  170   21 -99.9  71.2 -999.9 -9.9 -9.999 -99.9 -99.99 -9.99
2019/05/19 19:24 EDT    2.02   2.59   18  170   21 -99.9  71.4 -999.9 -9.9 -9.999 -99.9 -99.99 -9.99
2019/05/19 19:30 EDT    2.11   2.65   18  170   21 -99.9  71.2 -999.9 -9.9 -9.999 -99.9 -99.99 -9.99
2019/05/19 19:36 EDT    2.19   2.74   17  171   20 -99.9  71.2 -999.9 -9.9 -9.999 -99.9 -99.99 -9.99
2019/05/19 19:42 EDT    2.28   2.82   16  171   20 -99.9  71.2 -999.9 -9.9 -9.999 -99.9 -99.99 -9.99
2019/05/19 19:48 EDT    2.36   2.90   16  171   19 -99.9  71.2 -999.9 -9.9 -9.999 -99.9 -99.99 -9.99
2019/05/19 19:54 EDT    2.44   2.96   17  170   18 -99.9  71.2 -999.9 -9.9 -9.999 -99.9 -99.99 -9.99
2019/05/19 20:00 EDT    2.51   3.04   16  170   18 -99.9  71.2 -999.9 -9.9 -9.999 -99.9 -99.99 -9.99
2019/05/19 20:06 EDT    2.59   3.11   17  171   19 -99.9  71.2 -999.9 -9.9 -9.999 -99.9 -99.99 -9.99
2019/05/19 20:12 EDT    2.66   3.18   17  170   20 -99.9  71.1 -999.9 -9.9 -9.999 -99.9 -99.99 -9.99
2019/05/19 20:18 EDT    2.73   3.25   17  170   19 -99.9  70.9 -999.9 -9.9 -9.999 -99.9 -99.99 -9.99
2019/05/19 20:24 EDT    2.79   3.30   17  171   19 -99.9  70.7 -999.9 -9.9 -9.999 -99.9 -99.99 -9.99
2019/05/19 20:30 EDT    2.85   3.36   17  173   19 -99.9  70.7 -999.9 -9.9 -9.999 -99.9 -99.99 -9.99
2019/05/19 20:36 EDT    2.91   3.40   16  172   18 -99.9  70.9 -999.9 -9.9 -9.999 -99.9 -99.99 -9.99
2019/05/19 20:42 EDT    2.97   3.47   16  171   17 -99.9  70.9 -999.9 -9.9 -9.999 -99.9 -99.99 -9.99
2019/05/19 20:48 EDT    3.02   3.54   15  172   17 -99.9  71.1 -999.9 -9.9 -9.999 -99.9 -99.99 -9.99
2019/05/19 20:54 EDT    3.07   3.58   15  169   16 -99.9  71.2 -999.9 -9.9 -9.999 -99.9 -99.99 -9.99
2019/05/19 21:00 EDT    3.11   3.62   15  169   17 -99.9  71.2 -999.9 -9.9 -9.999 -99.9 -99.99 -9.99
2019/05/19 21:06 EDT    3.15   3.63   15  169   16 -99.9  71.1 -999.9 -9.9 -9.999 -99.9 -99.99 -9.99
2019/05/19 21:12 EDT    3.19   3.66   14  170   16 -99.9  70.9 -999.9 -9.9 -9.999 -99.9 -99.99 -9.99
2019/05/19 21:18 EDT    3.22   3.70   15  170   16 -99.9  71.1 -999.9 -9.9 -9.999 -99.9 -99.99 -9.99
2019/05/19 21:24 EDT    3.25   3.73   15  170   17 -99.9  71.1 -999.9 -9.9 -9.999 -99.9 -99.99 -9.99
2019/05/19 21:30 EDT    3.27   3.77   13  173   16 -99.9  71.1 -999.9 -9.9 -9.999 -99.9 -99.99 -9.99
2019/05/19 21:36 EDT    3.30   3.77   14  174   15 -99.9  71.1 -999.9 -9.9 -9.999 -99.9 -99.99 -9.99
2019/05/19 21:42 EDT    3.31   3.78   14  170   15 -99.9  71.1 -999.9 -9.9 -9.999 -99.9 -99.99 -9.99
2019/05/19 21:48 EDT    3.33   3.80   13  172   15 -99.9  70.9 -999.9 -9.9 -9.999 -99.9 -99.99 -9.99
2019/05/19 21:54 EDT    3.34   3.81   13  172   14 -99.9  70.7 -999.9 -9.9 -9.999 -99.9 -99.99 -9.99
2019/05/19 22:00 EDT    3.34   3.81   12  171   13 -99.9  70.2 -999.9 -9.9 -9.999 -99.9 -99.99 -9.99
2019/05/19 22:06 EDT    3.35   3.79   11  170   13 -99.9  70.0 -999.9 -9.9 -9.999 -99.9 -99.99 -9.99
2019/05/19 22:12 EDT    3.34   3.79   11  172   12 -99.9  70.0 -999.9 -9.9 -9.999 -99.9 -99.99 -9.99
2019/05/19 22:18 EDT    3.34   3.79   10  171   11 -99.9  69.8 -999.9 -9.9 -9.999 -99.9 -99.99 -9.99
2019/05/19 22:24 EDT    3.33   3.78   11  173   11 -99.9  69.4 -999.9 -9.9 -9.999 -99.9 -99.99 -9.99
2019/05/19 22:30 EDT    3.32   3.78   10  171   11 -99.9  69.1 -999.9 -9.9 -9.999 -99.9 -99.99 -9.99
2019/05/19 22:36 EDT    3.30   3.75   10  170   11 -99.9  68.5 -999.9 -9.9 -9.999 -99.9 -99.99 -9.99
2019/05/19 22:42 EDT    3.28   3.72   10  169   11 -99.9  68.4 -999.9 -9.9 -9.999 -99.9 -99.99 -9.99
2019/05/19 22:48 EDT    3.26   3.68   10  173   11 -99.9  68.2 -999.9 -9.9 -9.999 -99.9 -99.99 -9.99
2019/05/19 22:54 EDT    3.23   3.64   10  172   11 -99.9  68.2 -999.9 -9.9 -9.999 -99.9 -99.99 -9.99
2019/05/19 23:00 EDT    3.20   3.61   10  174   11 -99.9  68.2 -999.9 -9.9 -9.999 -99.9 -99.99 -9.99
2019/05/19 23:06 EDT    3.17   3.56   11  172   11 -99.9  68.5 -999.9 -9.9 -9.999 -99.9 -99.99 -9.99
2019/05/19 23:12 EDT    3.13   3.50   11  174   12 -99.9  69.1 -999.9 -9.9 -9.999 -99.9 -99.99 -9.99
2019/05/19 23:18 EDT    3.09   3.45   12  174   13 -99.9  69.4 -999.9 -9.9 -9.999 -99.9 -99.99 -9.99
2019/05/19 23:24 EDT    3.04   3.41   12  175   13 -99.9  69.6 -999.9 -9.9 -9.999 -99.9 -99.99 -9.99
2019/05/19 23:30 EDT    2.99   3.37   13  177   14 -99.9  69.6 -999.9 -9.9 -9.999 -99.9 -99.99 -9.99
2019/05/19 23:36 EDT    2.94   3.33   12  182   14 -99.9  69.8 -999.9 -9.9 -9.999 -99.9 -99.99 -9.99
2019/05/19 23:42 EDT    2.89   3.29   11  183   13 -99.9  69.8 -999.9 -9.9 -9.999 -99.9 -99.99 -9.99
2019/05/19 23:48 EDT    2.83   3.23   11  187   12 -99.9  69.8 -999.9 -9.9 -9.999 -99.9 -99.99 -9.99
2019/05/19 23:54 EDT    2.77   3.17   11  187   13 -99.9  69.8 -999.9 -9.9 -9.999 -99.9 -99.99 -9.99
2019/05/20 00:00 EDT    2.70   3.10   11  185   13 -99.9  69.6 -999.9 -9.9 -9.999 -99.9 -99.99 -9.99
2019/05/20 00:06 EDT    2.63   3.03   11  185   12 -99.9  69.6 -999.9 -9.9 -9.999 -99.9 -99.99 -9.99
2019/05/20 00:12 EDT    2.56   2.97   11  188   13 -99.9  69.6 -999.9 -9.9 -9.999 -99.9 -99.99 -9.99
2019/05/20 00:18 EDT    2.49   2.91   11  190   13 -99.9  69.6 -999.9 -9.9 -9.999 -99.9 -99.99 -9.99
2019/05/20 00:24 EDT    2.42   2.85   12  193   14 -99.9  69.6 -999.9 -9.9 -9.999 -99.9 -99.99 -9.99
2019/05/20 00:30 EDT    2.34   2.77   12  195   14 -99.9  69.4 -999.9 -9.9 -9.999 -99.9 -99.99 -9.99
2019/05/20 00:36 EDT    2.26   2.69   12  194   14 -99.9  69.4 -999.9 -9.9 -9.999 -99.9 -99.99 -9.99
2019/05/20 00:42 EDT    2.18   2.61   12  197   14 -99.9  69.3 -999.9 -9.9 -9.999 -99.9 -99.99 -9.99
2019/05/20 00:48 EDT    2.10   2.53   11  200   14 -99.9  69.1 -999.9 -9.9 -9.999 -99.9 -99.99 -9.99
2019/05/20 00:54 EDT    2.02   2.45   11  199   13 -99.9  69.1 -999.9 -9.9 -9.999 -99.9 -99.99 -9.99
2019/05/20 01:00 EDT    1.93   2.37   12  200   13 -99.9  69.1 -999.9 -9.9 -9.999 -99.9 -99.99 -9.99
2019/05/20 01:06 EDT    1.85   2.28   12  205   14 -99.9  69.1 -999.9 -9.9 -9.999 -99.9 -99.99 -9.99
2019/05/20 01:12 EDT    1.76   2.19   12  204   13 -99.9  68.9 -999.9 -9.9 -9.999 -99.9 -99.99 -9.99
2019/05/20 01:18 EDT    1.67   2.11   11  202   14 -99.9  68.9 -999.9 -9.9 -9.999 -99.9 -99.99 -9.99
2019/05/20 01:24 EDT    1.59   1.99   11  204   13 -99.9  68.9 -999.9 -9.9 -9.999 -99.9 -99.99 -9.99
2019/05/20 01:30 EDT    1.50   1.91   12  204   13 -99.9  68.9 -999.9 -9.9 -9.999 -99.9 -99.99 -9.99
2019/05/20 01:36 EDT    1.41   1.83   11  209   13 -99.9  68.9 -999.9 -9.9 -9.999 -99.9 -99.99 -9.99
2019/05/20 01:42 EDT    1.33   1.74   12  207   15 -99.9  68.7 -999.9 -9.9 -9.999 -99.9 -99.99 -9.99
2019/05/20 01:48 EDT    1.24   1.64   11  207   13 -99.9  68.7 -999.9 -9.9 -9.999 -99.9 -99.99 -9.99
2019/05/20 01:54 EDT    1.16   1.55   10  204   12 -99.9  68.7 -999.9 -9.9 -9.999 -99.9 -99.99 -9.99
2019/05/20 02:00 EDT    1.08   1.47   10  206   12 -99.9  68.7 -999.9 -9.9 -9.999 -99.9 -99.99 -9.99
2019/05/20 02:06 EDT    1.00   1.40   10  208   12 -99.9  68.5 -999.9 -9.9 -9.999 -99.9 -99.99 -9.99
2019/05/20 02:12 EDT    0.92   1.34   10  207   12 -99.9  68.5 -999.9 -9.9 -9.999 -99.9 -99.99 -9.99
2019/05/20 02:18 EDT    0.84   1.25   11  204   14 -99.9  68.7 -999.9 -9.9 -9.999 -99.9 -99.99 -9.99
2019/05/20 02:24 EDT    0.77   1.18   11  206   13 -99.9  68.9 -999.9 -9.9 -9.999 -99.9 -99.99 -9.99
2019/05/20 02:30 EDT    0.69   1.08   11  211   13 -99.9  68.9 -999.9 -9.9 -9.999 -99.9 -99.99 -9.99
2019/05/20 02:36 EDT    0.62   1.03   11  206   14 -99.9  68.9 -999.9 -9.9 -9.999 -99.9 -99.99 -9.99
2019/05/20 02:42 EDT    0.55   0.93   12  208   13 -99.9  68.9 -999.9 -9.9 -9.999 -99.9 -99.99 -9.99
2019/05/20 02:48 EDT    0.49   0.89   11  210   14 -99.9  68.9 -999.9 -9.9 -9.999 -99.9 -99.99 -9.99
2019/05/20 02:54 EDT    0.42   0.84   12  208   14 -99.9  68.9 -999.9 -9.9 -9.999 -99.9 -99.99 -9.99
2019/05/20 03:00 EDT    0.36   0.75   11  206   13 -99.9  68.9 -999.9 -9.9 -9.999 -99.9 -99.99 -9.99
2019/05/20 03:06 EDT    0.31   0.70   11  209   14 -99.9  68.9 -999.9 -9.9 -9.999 -99.9 -99.99 -9.99
2019/05/20 03:12 EDT    0.25   0.66   10  205   13 -99.9  68.7 -999.9 -9.9 -9.999 -99.9 -99.99 -9.99
2019/05/20 03:18 EDT    0.20   0.59   10  208   12 -99.9  68.7 -999.9 -9.9 -9.999 -99.9 -99.99 -9.99
2019/05/20 03:24 EDT    0.15   0.54   10  211   12 -99.9  68.9 -999.9 -9.9 -9.999 -99.9 -99.99 -9.99
2019/05/20 03:30 EDT    0.11   0.50   11  205   13 -99.9  68.9 -999.9 -9.9 -9.999 -99.9 -99.99 -9.99
2019/05/20 03:36 EDT    0.07   0.46   12  208   14 -99.9  68.9 -999.9 -9.9 -9.999 -99.9 -99.99 -9.99
2019/05/20 03:42 EDT    0.03   0.45   11  211   13 -99.9  68.9 -999.9 -9.9 -9.999 -99.9 -99.99 -9.99
2019/05/20 03:48 EDT   -0.01   0.43   12  212   14 -99.9  68.9 -999.9 -9.9 -9.999 -99.9 -99.99 -9.99
2019/05/20 03:54 EDT   -0.04   0.39   11  210   13 -99.9  68.9 -999.9 -9.9 -9.999 -99.9 -99.99 -9.99
2019/05/20 04:00 EDT   -0.06   0.36   11  212   12 -99.9  68.9 -999.9 -9.9 -9.999 -99.9 -99.99 -9.99
2019/05/20 04:06 EDT   -0.09   0.34   11  209   12 -99.9  68.9 -999.9 -9.9 -9.999 -99.9 -99.99 -9.99
2019/05/20 04:12 EDT   -0.11   0.33   10  212   12 -99.9  68.9 -999.9 -9.9 -9.999 -99.9 -99.99 -9.99
2019/05/20 04:18 EDT   -0.13   0.32   10  211   12 -99.9  68.9 -999.9 -9.9 -9.999 -99.9 -99.99 -9.99
2019/05/20 04:24 EDT   -0.14   0.32   11  208   13 -99.9  68.9 -999.9 -9.9 -9.999 -99.9 -99.99 -9.99
2019/05/20 04:30 EDT   -0.15   0.31   11  211   13 -99.9  68.9 -999.9 -9.9 -9.999 -99.9 -99.99 -9.99
2019/05/20 04:36 EDT   -0.15   0.31   11  212   13 -99.9  68.9 -999.9 -9.9 -9.999 -99.9 -99.99 -9.99
2019/05/20 04:42 EDT   -0.16   0.31   10  213   12 -99.9  68.7 -999.9 -9.9 -9.999 -99.9 -99.99 -9.99
2019/05/20 04:48 EDT   -0.15   0.30    9  214   11 -99.9  68.7 -999.9 -9.9 -9.999 -99.9 -99.99 -9.99
2019/05/20 04:54 EDT   -0.15   0.31    9  217   11 -99.9  68.7 -999.9 -9.9 -9.999 -99.9 -99.99 -9.99
2019/05/20 05:00 EDT   -0.14   0.31   10  223   11 -99.9  68.7 -999.9 -9.9 -9.999 -99.9 -99.99 -9.99
2019/05/20 05:06 EDT   -0.13   0.35   11  223   13 -99.9  68.7 -999.9 -9.9 -9.999 -99.9 -99.99 -9.99
2019/05/20 05:12 EDT   -0.11   0.34   12  221   13 -99.9  68.7 -999.9 -9.9 -9.999 -99.9 -99.99 -9.99
2019/05/20 05:18 EDT   -0.09   0.35   12  218   15 -99.9  68.7 -999.9 -9.9 -9.999 -99.9 -99.99 -9.99
2019/05/20 05:24 EDT   -0.06   0.38   11  213   15 -99.9  68.7 -999.9 -9.9 -9.999 -99.9 -99.99 -9.99
2019/05/20 05:30 EDT   -0.03   0.41   11  217   13 -99.9  68.7 -999.9 -9.9 -9.999 -99.9 -99.99 -9.99
2019/05/20 05:36 EDT    0.00   0.47   11  220   13 -99.9  68.7 -999.9 -9.9 -9.999 -99.9 -99.99 -9.99
2019/05/20 05:42 EDT    0.04   0.48   11  221   13 -99.9  68.7 -999.9 -9.9 -9.999 -99.9 -99.99 -9.99
2019/05/20 05:48 EDT    0.08   0.52   11  225   14 -99.9  68.7 -999.9 -9.9 -9.999 -99.9 -99.99 -9.99
2019/05/20 05:54 EDT    0.12   0.52   11  230   15 -99.9  68.7 -999.9 -9.9 -9.999 -99.9 -99.99 -9.99
2019/05/20 06:00 EDT    0.17   0.58   11  228   14 -99.9  68.7 -999.9 -9.9 -9.999 -99.9 -99.99 -9.99
2019/05/20 06:06 EDT    0.22   0.62   11  232   12 -99.9  68.7 -999.9 -9.9 -9.999 -99.9 -99.99 -9.99
2019/05/20 06:12 EDT    0.27   0.67   11  233   13 -99.9  68.7 -999.9 -9.9 -9.999 -99.9 -99.99 -9.99
2019/05/20 06:18 EDT    0.33   0.71   11  234   13 -99.9  68.7 -999.9 -9.9 -9.999 -99.9 -99.99 -9.99
2019/05/20 06:24 EDT    0.39   0.76    9  235   13 -99.9  68.7 -999.9 -9.9 -9.999 -99.9 -99.99 -9.99
2019/05/20 06:30 EDT    0.45   0.82   12  238   13 -99.9  68.7 -999.9 -9.9 -9.999 -99.9 -99.99 -9.99
2019/05/20 06:36 EDT    0.52   0.88   11  237   13 -99.9  68.7 -999.9 -9.9 -9.999 -99.9 -99.99 -9.99
2019/05/20 06:42 EDT    0.58   0.91   12  234   14 -99.9  68.7 -999.9 -9.9 -9.999 -99.9 -99.99 -9.99
2019/05/20 06:48 EDT    0.65   0.96   11  231   14 -99.9  68.7 -999.9 -9.9 -9.999 -99.9 -99.99 -9.99
2019/05/20 06:54 EDT    0.73   1.02   12  230   14 -99.9  68.7 -999.9 -9.9 -9.999 -99.9 -99.99 -9.99
2019/05/20 07:00 EDT    0.80   1.04   12  235   15 -99.9  68.7 -999.9 -9.9 -9.999 -99.9 -99.99 -9.99
2019/05/20 07:06 EDT    0.87   1.10   13  236   15 -99.9  68.7 -999.9 -9.9 -9.999 -99.9 -99.99 -9.99
2019/05/20 07:12 EDT    0.95   1.15   12  235   14 -99.9  68.7 -999.9 -9.9 -9.999 -99.9 -99.99 -9.99
2019/05/20 07:18 EDT    1.02   1.22   14  237   16 -99.9  68.7 -999.9 -9.9 -9.999 -99.9 -99.99 -9.99
2019/05/20 07:24 EDT    1.10   1.30   15  236   17 -99.9  68.7 -999.9 -9.9 -9.999 -99.9 -99.99 -9.99
2019/05/20 07:30 EDT    1.18   1.40   14  237   17 -99.9  68.7 -999.9 -9.9 -9.999 -99.9 -99.99 -9.99
2019/05/20 07:36 EDT    1.26   1.47   14  236   17 -99.9  68.7 -999.9 -9.9 -9.999 -99.9 -99.99 -9.99
2019/05/20 07:42 EDT    1.33   1.55   13  235   16 -99.9  68.7 -999.9 -9.9 -9.999 -99.9 -99.99 -9.99
2019/05/20 07:48 EDT    1.41   1.63   13  237   16 -99.9  68.7 -999.9 -9.9 -9.999 -99.9 -99.99 -9.99
2019/05/20 07:54 EDT    1.48   1.69   11  243   16 -99.9  68.7 -999.9 -9.9 -9.999 -99.9 -99.99 -9.99
2019/05/20 08:00 EDT    1.56   1.77   10  241   14 -99.9  68.9 -999.9 -9.9 -9.999 -99.9 -99.99 -9.99
2019/05/20 08:06 EDT    1.63   1.85   11  237   13 -99.9  68.9 -999.9 -9.9 -9.999 -99.9 -99.99 -9.99
2019/05/20 08:12 EDT    1.70   1.95   10  238   12 -99.9  68.7 -999.9 -9.9 -9.999 -99.9 -99.99 -9.99
2019/05/20 08:18 EDT    1.77   2.02    9  235   12 -99.9  68.7 -999.9 -9.9 -9.999 -99.9 -99.99 -9.99
2019/05/20 08:24 EDT    1.84   2.07    9  233   11 -99.9  68.7 -999.9 -9.9 -9.999 -99.9 -99.99 -9.99
2019/05/20 08:30 EDT    1.91   2.18    9  236   10 -99.9  68.9 -999.9 -9.9 -9.999 -99.9 -99.99 -9.99
2019/05/20 08:36 EDT    1.97   2.26    8  238   10 -99.9  68.9 -999.9 -9.9 -9.999 -99.9 -99.99 -9.99
2019/05/20 08:42 EDT    2.03   2.34    7  237    9 -99.9  68.9 -999.9 -9.9 -9.999 -99.9 -99.99 -9.99
2019/05/20 08:48 EDT    2.09   2.40    7  235    9 -99.9  68.9 -999.9 -9.9 -9.999 -99.9 -99.99 -9.99
2019/05/20 08:54 EDT    2.14   2.48    8  242   10 -99.9  68.9 -999.9 -9.9 -9.999 -99.9 -99.99 -9.99
2019/05/20 09:00 EDT    2.19   2.54    8  240   10 -99.9  69.1 -999.9 -9.9 -9.999 -99.9 -99.99 -9.99
2019/05/20 09:06 EDT    2.24   2.58    8  238   10 -99.9  69.1 -999.9 -9.9 -9.999 -99.9 -99.99 -9.99
2019/05/20 09:12 EDT    2.29   2.63    8  237   10 -99.9  69.1 -999.9 -9.9 -9.999 -99.9 -99.99 -9.99
2019/05/20 09:18 EDT    2.33   2.67    8  238   10 -99.9  69.1 -999.9 -9.9 -9.999 -99.9 -99.99 -9.99
2019/05/20 09:24 EDT    2.37   2.71   10  234   12 -99.9  69.1 -999.9 -9.9 -9.999 -99.9 -99.99 -9.99
2019/05/20 09:30 EDT    2.41   2.77   11  236   13 -99.9  69.3 -999.9 -9.9 -9.999 -99.9 -99.99 -9.99
2019/05/20 09:36 EDT    2.44   2.78   11  231   13 -99.9  69.3 -999.9 -9.9 -9.999 -99.9 -99.99 -9.99
2019/05/20 09:42 EDT    2.47   2.81   11  232   13 -99.9  69.3 -999.9 -9.9 -9.999 -99.9 -99.99 -9.99
2019/05/20 09:48 EDT    2.50   2.85   11  236   13 -99.9  69.3 -999.9 -9.9 -9.999 -99.9 -99.99 -9.99
2019/05/20 09:54 EDT    2.52   2.88   11  235   14 -99.9  69.4 -999.9 -9.9 -9.999 -99.9 -99.99 -9.99
2019/05/20 10:00 EDT    2.54   2.90   12  233   14 -99.9  69.4 -999.9 -9.9 -9.999 -99.9 -99.99 -9.99
2019/05/20 10:06 EDT    2.56   2.90   11  229   13 -99.9  69.4 -999.9 -9.9 -9.999 -99.9 -99.99 -9.99
2019/05/20 10:12 EDT    2.57   2.89   11  228   13 -99.9  69.4 -999.9 -9.9 -9.999 -99.9 -99.99 -9.99
2019/05/20 10:18 EDT    2.58   2.90   11  225   13 -99.9  69.4 -999.9 -9.9 -9.999 -99.9 -99.99 -9.99
2019/05/20 10:24 EDT    2.59   2.94    8  225   12 -99.9  69.6 -999.9 -9.9 -9.999 -99.9 -99.99 -9.99
2019/05/20 10:30 EDT    2.59   2.94    8  222   11 -99.9  69.6 -999.9 -9.9 -9.999 -99.9 -99.99 -9.99
2019/05/20 10:36 EDT    2.59   2.94    8  217   10 -99.9  69.6 -999.9 -9.9 -9.999 -99.9 -99.99 -9.99
2019/05/20 10:42 EDT    2.59   2.93    8  218   10 -99.9  69.6 -999.9 -9.9 -9.999 -99.9 -99.99 -9.99
2019/05/20 10:48 EDT    2.59   2.91    8  212   10 -99.9  69.6 -999.9 -9.9 -9.999 -99.9 -99.99 -9.99
2019/05/20 10:54 EDT    2.58   2.91    7  212    9 -99.9  69.6 -999.9 -9.9 -9.999 -99.9 -99.99 -9.99
2019/05/20 11:00 EDT    2.56   2.90    7  208    9 -99.9  69.8 -999.9 -9.9 -9.999 -99.9 -99.99 -9.99
2019/05/20 11:06 EDT    2.55   2.90    7  203    9 -99.9  69.8 -999.9 -9.9 -9.999 -99.9 -99.99 -9.99
2019/05/20 11:12 EDT    2.53   2.87    7  206    9 -99.9  69.8 -999.9 -9.9 -9.999 -99.9 -99.99 -9.99
2019/05/20 11:18 EDT    2.51   2.84    7  206    9 -99.9  69.8 -999.9 -9.9 -9.999 -99.9 -99.99 -9.99
2019/05/20 11:24 EDT    2.48   2.80    8  211    9 -99.9  70.0 -999.9 -9.9 -9.999 -99.9 -99.99 -9.99
2019/05/20 11:30 EDT    2.45   2.79   10  219   11 -99.9  70.2 -999.9 -9.9 -9.999 -99.9 -99.99 -9.99
2019/05/20 11:36 EDT    2.42   2.75    9  215   11 -99.9  70.2 -999.9 -9.9 -9.999 -99.9 -99.99 -9.99
2019/05/20 11:42 EDT    2.38   2.73    9  213   11 -99.9  70.2 -999.9 -9.9 -9.999 -99.9 -99.99 -9.99
2019/05/20 11:48 EDT    2.35   2.70    8  211   10 -99.9  70.2 -999.9 -9.9 -9.999 -99.9 -99.99 -9.99
2019/05/20 11:54 EDT    2.31   2.64    8  212   10 -99.9  70.2 -999.9 -9.9 -9.999 -99.9 -99.99 -9.99
2019/05/20 12:00 EDT    2.26   2.61    7  217    9 -99.9  70.3 -999.9 -9.9 -9.999 -99.9 -99.99 -9.99
2019/05/20 12:06 EDT    2.21   2.58    7  209    9 -99.9  70.3 -999.9 -9.9 -9.999 -99.9 -99.99 -9.99
2019/05/20 12:12 EDT    2.17   2.54    7  216   10 -99.9  70.3 -999.9 -9.9 -9.999 -99.9 -99.99 -9.99
2019/05/20 12:18 EDT    2.11   2.49    8  220    9 -99.9  70.5 -999.9 -9.9 -9.999 -99.9 -99.99 -9.99
2019/05/20 12:24 EDT    2.06   2.40    7  209    9 -99.9  70.5 -999.9 -9.9 -9.999 -99.9 -99.99 -9.99
2019/05/20 12:30 EDT    2.00   2.34    8  204    9 -99.9  70.7 -999.9 -9.9 -9.999 -99.9 -99.99 -9.99
2019/05/20 12:36 EDT    1.94   2.30    6  215    8 -99.9  70.5 -999.9 -9.9 -9.999 -99.9 -99.99 -9.99
2019/05/20 12:42 EDT    1.88   2.25    8  214    9 -99.9  70.5 -999.9 -9.9 -9.999 -99.9 -99.99 -9.99
2019/05/20 12:48 EDT    1.82   2.18    8  217    9 -99.9  70.5 -999.9 -9.9 -9.999 -99.9 -99.99 -9.99
2019/05/20 12:54 EDT    1.75   2.12    8  214    9 -99.9  70.3 -999.9 -9.9 -9.999 -99.9 -99.99 -9.99
2019/05/20 13:00 EDT    1.69   2.04    7  208    9 -99.9  70.0 -999.9 -9.9 -9.999 -99.9 -99.99 -9.99
2019/05/20 13:06 EDT    1.62   1.98    7  197    9 -99.9  69.8 -999.9 -9.9 -9.999 -99.9 -99.99 -9.99
2019/05/20 13:12 EDT    1.55   1.91    6  197    7 -99.9  69.6 -999.9 -9.9 -9.999 -99.9 -99.99 -9.99
2019/05/20 13:18 EDT    1.48   1.84    5  193    7 -99.9  69.4 -999.9 -9.9 -9.999 -99.9 -99.99 -9.99
2019/05/20 13:24 EDT    1.41   1.76    5  182    6 -99.9  69.3 -999.9 -9.9 -9.999 -99.9 -99.99 -9.99
2019/05/20 13:30 EDT    1.34   1.70    5  172    5 -99.9  69.3 -999.9 -9.9 -9.999 -99.9 -99.99 -9.99
2019/05/20 13:36 EDT    1.27   1.62    6  187    6 -99.9  69.3 -999.9 -9.9 -9.999 -99.9 -99.99 -9.99
2019/05/20 13:42 EDT    1.19   1.52    6  186    6 -99.9  69.1 -999.9 -9.9 -9.999 -99.9 -99.99 -9.99
2019/05/20 13:48 EDT    1.12   1.45    6  193    6 -99.9  69.1 -999.9 -9.9 -9.999 -99.9 -99.99 -9.99
2019/05/20 13:54 EDT    1.05   1.37    5  195    6 -99.9  69.1 -999.9 -9.9 -9.999 -99.9 -99.99 -9.99
2019/05/20 14:00 EDT    0.98   1.30    5  199    7 -99.9  69.1 -999.9 -9.9 -9.999 -99.9 -99.99 -9.99
2019/05/20 14:06 EDT    0.91   1.21    5  200    6 -99.9  69.1 -999.9 -9.9 -9.999 -99.9 -99.99 -9.99
2019/05/20 14:12 EDT    0.85   1.13    5  170    6 -99.9  69.1 -999.9 -9.9 -9.999 -99.9 -99.99 -9.99
2019/05/20 14:18 EDT    0.78   1.09   10  221   11 -99.9  69.1 -999.9 -9.9 -9.999 -99.9 -99.99 -9.99
2019/05/20 14:24 EDT    0.71   1.03    9  231   12 -99.9  69.1 -999.9 -9.9 -9.999 -99.9 -99.99 -9.99
2019/05/20 14:30 EDT    0.65   0.95    7  222   13 -99.9  69.1 -999.9 -9.9 -9.999 -99.9 -99.99 -9.99
2019/05/20 14:36 EDT    0.59   0.87    6  179    8 -99.9  69.3 -999.9 -9.9 -9.999 -99.9 -99.99 -9.99
2019/05/20 14:42 EDT    0.53   0.81   10  214   12 -99.9  69.3 -999.9 -9.9 -9.999 -99.9 -99.99 -9.99
2019/05/20 14:48 EDT    0.48   0.78    9  223   12 -99.9  69.3 -999.9 -9.9 -9.999 -99.9 -99.99 -9.99
2019/05/20 14:54 EDT    0.42   0.72    7  204   10 -99.9  69.6 -999.9 -9.9 -9.999 -99.9 -99.99 -9.99
2019/05/20 15:00 EDT    0.37   0.67    7  213    9 -99.9  69.8 -999.9 -9.9 -9.999 -99.9 -99.99 -9.99
2019/05/20 15:06 EDT    0.32   0.62   10  222   11 -99.9  69.8 -999.9 -9.9 -9.999 -99.9 -99.99 -9.99
2019/05/20 15:12 EDT    0.27   0.56    7  197   10 -99.9  69.8 -999.9 -9.9 -9.999 -99.9 -99.99 -9.99
2019/05/20 15:18 EDT    0.23   0.52    8  216   10 -99.9  69.8 -999.9 -9.9 -9.999 -99.9 -99.99 -9.99
2019/05/20 15:24 EDT    0.19   0.50    8  214   10 -99.9  69.8 -999.9 -9.9 -9.999 -99.9 -99.99 -9.99
2019/05/20 15:30 EDT    0.16   0.48    8  212    9 -99.9  70.2 -999.9 -9.9 -9.999 -99.9 -99.99 -9.99
2019/05/20 15:36 EDT    0.12   0.45    8  192    9 -99.9  70.5 -999.9 -9.9 -9.999 -99.9 -99.99 -9.99
2019/05/20 15:42 EDT    0.09   0.42    8  213   10 -99.9  70.9 -999.9 -9.9 -9.999 -99.9 -99.99 -9.99
2019/05/20 15:48 EDT    0.06   0.39    7  210   10 -99.9  71.2 -999.9 -9.9 -9.999 -99.9 -99.99 -9.99
2019/05/20 15:54 EDT    0.04   0.38    5  187    7 -99.9  71.6 -999.9 -9.9 -9.999 -99.9 -99.99 -9.99
2019/05/20 16:00 EDT    0.02   0.36    5  182    6 -99.9  72.0 -999.9 -9.9 -9.999 -99.9 -99.99 -9.99
2019/05/20 16:06 EDT    0.00   0.34    8  200    9 -99.9  72.3 -999.9 -9.9 -9.999 -99.9 -99.99 -9.99
2019/05/20 16:12 EDT   -0.01   0.34    7  200    9 -99.9  72.5 -999.9 -9.9 -9.999 -99.9 -99.99 -9.99
2019/05/20 16:18 EDT   -0.02   0.31    5  173    8 -99.9  72.7 -999.9 -9.9 -9.999 -99.9 -99.99 -9.99
2019/05/20 16:24 EDT   -0.03   0.31    7  197    8 -99.9  72.9 -999.9 -9.9 -9.999 -99.9 -99.99 -9.99
2019/05/20 16:30 EDT   -0.03   0.32    7  198    8 -99.9  72.9 -999.9 -9.9 -9.999 -99.9 -99.99 -9.99
2019/05/20 16:36 EDT   -0.03   0.33    7  213    8 -99.9  73.0 -999.9 -9.9 -9.999 -99.9 -99.99 -9.99
2019/05/20 16:42 EDT   -0.02   0.34    7  227    9 -99.9  73.0 -999.9 -9.9 -9.999 -99.9 -99.99 -9.99
2019/05/20 16:48 EDT   -0.02   0.35    8  211   10 -99.9  72.9 -999.9 -9.9 -9.999 -99.9 -99.99 -9.99
2019/05/20 16:54 EDT   -0.01   0.36    5  204    8 -99.9  73.0 -999.9 -9.9 -9.999 -99.9 -99.99 -9.99
2019/05/20 17:00 EDT    0.01   0.36    8  216   13 -99.9  73.0 -999.9 -9.9 -9.999 -99.9 -99.99 -9.99
2019/05/20 17:06 EDT    0.03   0.40    8  224   10 -99.9  73.0 -999.9 -9.9 -9.999 -99.9 -99.99 -9.99
2019/05/20 17:12 EDT    0.05   0.42    5  204    9 -99.9  72.7 -999.9 -9.9 -9.999 -99.9 -99.99 -9.99
2019/05/20 17:18 EDT    0.08   0.43    5  186    8 -99.9  72.7 -999.9 -9.9 -9.999 -99.9 -99.99 -9.99
2019/05/20 17:24 EDT    0.11   0.44   10  207   11 -99.9  72.7 -999.9 -9.9 -9.999 -99.9 -99.99 -9.99
2019/05/20 17:30 EDT    0.14   0.47    7  211   10 -99.9  72.7 -999.9 -9.9 -9.999 -99.9 -99.99 -9.99
2019/05/20 17:36 EDT    0.18   0.51    7  219    9 -99.9  72.7 -999.9 -9.9 -9.999 -99.9 -99.99 -9.99
2019/05/20 17:42 EDT    0.22   0.55    7  229    9 -99.9  72.7 -999.9 -9.9 -9.999 -99.9 -99.99 -9.99
2019/05/20 17:48 EDT    0.26   0.58    8  218    9 -99.9  72.7 -999.9 -9.9 -9.999 -99.9 -99.99 -9.99
2019/05/20 17:54 EDT    0.31   0.63    7  206   10 -99.9  72.7 -999.9 -9.9 -9.999 -99.9 -99.99 -9.99
2019/05/20 18:00 EDT    0.36   0.68    9  222   11 -99.9  72.9 -999.9 -9.9 -9.999 -99.9 -99.99 -9.99
2019/05/20 18:06 EDT    0.41   0.73    7  214   10 -99.9  72.9 -999.9 -9.9 -9.999 -99.9 -99.99 -9.99
2019/05/20 18:12 EDT    0.47   0.79    7  200   10 -99.9  73.0 -999.9 -9.9 -9.999 -99.9 -99.99 -9.99
2019/05/20 18:18 EDT    0.53   0.86    7  208    9 -99.9  73.0 -999.9 -9.9 -9.999 -99.9 -99.99 -9.99
2019/05/20 18:24 EDT    0.59   0.91    7  229    9 -99.9  72.9 -999.9 -9.9 -9.999 -99.9 -99.99 -9.99
2019/05/20 18:30 EDT    0.66   0.98    7  220    9 -99.9  72.7 -999.9 -9.9 -9.999 -99.9 -99.99 -9.99
2019/05/20 18:36 EDT    0.73   1.03    8  221    9 -99.9  72.7 -999.9 -9.9 -9.999 -99.9 -99.99 -9.99
2019/05/20 18:42 EDT    0.80   1.11    8  216   10 -99.9  72.3 -999.9 -9.9 -9.999 -99.9 -99.99 -9.99
2019/05/20 18:48 EDT    0.87   1.20    7  211    9 -99.9  72.1 -999.9 -9.9 -9.999 -99.9 -99.99 -9.99
2019/05/20 18:54 EDT    0.95   1.28    7  216    9 -99.9  73.2 -999.9 -9.9 -9.999 -99.9 -99.99 -9.99
2019/05/20 19:00 EDT    1.03   1.36    8  222   10 -99.9  73.9 -999.9 -9.9 -9.999 -99.9 -99.99 -9.99
2019/05/20 19:06 EDT    1.11   1.42    8  221   11 -99.9  74.1 -999.9 -9.9 -9.999 -99.9 -99.99 -9.99
2019/05/20 19:12 EDT    1.19   1.50    8  220    9 -99.9  73.9 -999.9 -9.9 -9.999 -99.9 -99.99 -9.99
2019/05/20 19:18 EDT    1.27   1.58    7  229    9 -99.9  72.7 -999.9 -9.9 -9.999 -99.9 -99.99 -9.99
2019/05/20 19:24 EDT    1.36   1.68    7  216    9 -99.9  72.3 -999.9 -9.9 -9.999 -99.9 -99.99 -9.99
2019/05/20 19:30 EDT    1.44   1.77    8  217    9 -99.9  72.1 -999.9 -9.9 -9.999 -99.9 -99.99 -9.99
2019/05/20 19:36 EDT    1.53   1.86    7  226    8 -99.9  73.0 -999.9 -9.9 -9.999 -99.9 -99.99 -9.99
2019/05/20 19:42 EDT    1.61   1.94    7  219    9 -99.9  73.0 -999.9 -9.9 -9.999 -99.9 -99.99 -9.99
2019/05/20 19:48 EDT    1.70   2.01    8  224   10 -99.9  72.9 -999.9 -9.9 -9.999 -99.9 -99.99 -9.99
2019/05/20 19:54 EDT    1.79   2.12    8  223   10 -99.9  72.7 -999.9 -9.9 -9.999 -99.9 -99.99 -9.99
2019/05/20 20:00 EDT    1.87   2.22    8  219    9 -99.9  72.5 -999.9 -9.9 -9.999 -99.9 -99.99 -9.99
2019/05/20 20:06 EDT    1.95   2.29   10  215   12 -99.9  72.7 -999.9 -9.9 -9.999 -99.9 -99.99 -9.99
2019/05/20 20:12 EDT    2.04   2.37   10  216   12 -99.9  72.7 -999.9 -9.9 -9.999 -99.9 -99.99 -9.99
2019/05/20 20:18 EDT    2.12   2.45   10  213   12 -99.9  72.9 -999.9 -9.9 -9.999 -99.9 -99.99 -9.99
2019/05/20 20:24 EDT    2.20   2.54    9  212   11 -99.9  73.2 -999.9 -9.9 -9.999 -99.9 -99.99 -9.99
2019/05/20 20:30 EDT    2.28   2.68    8  217   10 -99.9  73.4 -999.9 -9.9 -9.999 -99.9 -99.99 -9.99
2019/05/20 20:36 EDT    2.35   2.86   15  309   21 -99.9  73.4 -999.9 -9.9 -9.999 -99.9 -99.99 -9.99
2019/05/20 20:42 EDT    2.43   2.95   10  336   16 -99.9  73.4 -999.9 -9.9 -9.999 -99.9 -99.99 -9.99
2019/05/20 20:48 EDT    2.50   3.04   16  328   20 -99.9  73.4 -999.9 -9.9 -9.999 -99.9 -99.99 -9.99
2019/05/20 20:54 EDT    2.57   3.04   13  339   17 -99.9  73.2 -999.9 -9.9 -9.999 -99.9 -99.99 -9.99
2019/05/20 21:00 EDT    2.63   3.04    9  333   16 -99.9  73.2 -999.9 -9.9 -9.999 -99.9 -99.99 -9.99
2019/05/20 21:06 EDT    2.70   3.05    7  343    9 -99.9  73.0 -999.9 -9.9 -9.999 -99.9 -99.99 -9.99
2019/05/20 21:12 EDT    2.75   3.10    7  343    8 -99.9  72.9 -999.9 -9.9 -9.999 -99.9 -99.99 -9.99
2019/05/20 21:18 EDT    2.81   3.13    5  292    7 -99.9  72.5 -999.9 -9.9 -9.999 -99.9 -99.99 -9.99
2019/05/20 21:24 EDT    2.86   3.15    8  252   10 -99.9  72.3 -999.9 -9.9 -9.999 -99.9 -99.99 -9.99
2019/05/20 21:30 EDT    2.91   3.17    5  235    9 -99.9  72.3 -999.9 -9.9 -9.999 -99.9 -99.99 -9.99
2019/05/20 21:36 EDT    2.96   3.17    3  194    6 -99.9  72.1 -999.9 -9.9 -9.999 -99.9 -99.99 -9.99
2019/05/20 21:42 EDT    3.00   3.27    3  178    3 -99.9  72.1 -999.9 -9.9 -9.999 -99.9 -99.99 -9.99
2019/05/20 21:48 EDT    3.04   3.31    4  164    4 -99.9  72.0 -999.9 -9.9 -9.999 -99.9 -99.99 -9.99
2019/05/20 21:54 EDT    3.08   3.38    2  118    4 -99.9  72.1 -999.9 -9.9 -9.999 -99.9 -99.99 -9.99
2019/05/20 22:00 EDT    3.11   3.43    2  110    3 -99.9  72.3 -999.9 -9.9 -9.999 -99.9 -99.99 -9.99
2019/05/20 22:06 EDT    3.14   3.44    3  136    4 -99.9  72.5 -999.9 -9.9 -9.999 -99.9 -99.99 -9.99
2019/05/20 22:12 EDT    3.16   3.47    4  147    4 -99.9  72.5 -999.9 -9.9 -9.999 -99.9 -99.99 -9.99
2019/05/20 22:18 EDT    3.18   3.49    4  146    5 -99.9  72.7 -999.9 -9.9 -9.999 -99.9 -99.99 -9.99
2019/05/20 22:24 EDT    3.20   3.49    8  158   10 -99.9  72.7 -999.9 -9.9 -9.999 -99.9 -99.99 -9.99
2019/05/20 22:30 EDT    3.21   3.48   10  156   11 -99.9  72.7 -999.9 -9.9 -9.999 -99.9 -99.99 -9.99
2019/05/20 22:36 EDT    3.22   3.48    9  165   10 -99.9  72.7 -999.9 -9.9 -9.999 -99.9 -99.99 -9.99
2019/05/20 22:42 EDT    3.23   3.49   10  183   11 -99.9  72.7 -999.9 -9.9 -9.999 -99.9 -99.99 -9.99
2019/05/20 22:48 EDT    3.23   3.50   12  182   17 -99.9  72.7 -999.9 -9.9 -9.999 -99.9 -99.99 -9.99
2019/05/20 22:54 EDT    3.23   3.56   17  209   20 -99.9  72.7 -999.9 -9.9 -9.999 -99.9 -99.99 -9.99
2019/05/20 23:00 EDT    3.23   3.58   16  202   20 -99.9  72.7 -999.9 -9.9 -9.999 -99.9 -99.99 -9.99
2019/05/20 23:06 EDT    3.22   3.53   13  198   18 -99.9  72.7 -999.9 -9.9 -9.999 -99.9 -99.99 -9.99
2019/05/20 23:12 EDT    3.21   3.46   11  189   14 -99.9  72.5 -999.9 -9.9 -9.999 -99.9 -99.99 -9.99
2019/05/20 23:18 EDT    3.19   3.45    7  206   10 -99.9  72.3 -999.9 -9.9 -9.999 -99.9 -99.99 -9.99
2019/05/20 23:24 EDT    3.18   3.47    5  200    7 -99.9  72.1 -999.9 -9.9 -9.999 -99.9 -99.99 -9.99
2019/05/20 23:30 EDT    3.16   3.46    5  176    6 -99.9  72.0 -999.9 -9.9 -9.999 -99.9 -99.99 -9.99
2019/05/20 23:36 EDT    3.13   3.40    6  181    8 -99.9  71.6 -999.9 -9.9 -9.999 -99.9 -99.99 -9.99
2019/05/20 23:42 EDT    3.10   3.39    8  182    9 -99.9  71.4 -999.9 -9.9 -9.999 -99.9 -99.99 -9.99
2019/05/20 23:48 EDT    3.07   3.33    6  200    9 -99.9  71.4 -999.9 -9.9 -9.999 -99.9 -99.99 -9.99
2019/05/20 23:54 EDT    3.04   3.36   10  240   12 -99.9  71.4 -999.9 -9.9 -9.999 -99.9 -99.99 -9.99
2019/05/21 00:00 EDT    3.00   3.26   10  236   11 -99.9  71.2 -999.9 -9.9 -9.999 -99.9 -99.99 -9.99
2019/05/21 00:06 EDT    2.96   3.29   11  226   15 -99.9  71.1 -999.9 -9.9 -9.999 -99.9 -99.99 -9.99
2019/05/21 00:12 EDT    2.91   3.25    8  222   11 -99.9  70.7 -999.9 -9.9 -9.999 -99.9 -99.99 -9.99
2019/05/21 00:18 EDT    2.87   3.19   11  221   14 -99.9  70.5 -999.9 -9.9 -9.999 -99.9 -99.99 -9.99
2019/05/21 00:24 EDT    2.82   3.12   11  218   13 -99.9  70.5 -999.9 -9.9 -9.999 -99.9 -99.99 -9.99
2019/05/21 00:30 EDT    2.76   3.08   11  207   13 -99.9  70.3 -999.9 -9.9 -9.999 -99.9 -99.99 -9.99
2019/05/21 00:36 EDT    2.71   3.01   10  214   13 -99.9  70.3 -999.9 -9.9 -9.999 -99.9 -99.99 -9.99
2019/05/21 00:42 EDT    2.65   2.96    9  200   11 -99.9  70.2 -999.9 -9.9 -9.999 -99.9 -99.99 -9.99
2019/05/21 00:48 EDT    2.58   2.90    9  202   11 -99.9  70.2 -999.9 -9.9 -9.999 -99.9 -99.99 -9.99
2019/05/21 00:54 EDT    2.52   2.85   10  203   12 -99.9  69.8 -999.9 -9.9 -9.999 -99.9 -99.99 -9.99
2019/05/21 01:00 EDT    2.45   2.77    9  204   11 -99.9  70.0 -999.9 -9.9 -9.999 -99.9 -99.99 -9.99
2019/05/21 01:06 EDT    2.39   2.71   10  204   11 -99.9  70.3 -999.9 -9.9 -9.999 -99.9 -99.99 -9.99
2019/05/21 01:12 EDT    2.31   2.62    8  205   11 -99.9  70.3 -999.9 -9.9 -9.999 -99.9 -99.99 -9.99
2019/05/21 01:18 EDT    2.24   2.56   10  210   12 -99.9  70.5 -999.9 -9.9 -9.999 -99.9 -99.99 -9.99
2019/05/21 01:24 EDT    2.17   2.51   10  217   13 -99.9  70.5 -999.9 -9.9 -9.999 -99.9 -99.99 -9.99
2019/05/21 01:30 EDT    2.09   2.44   11  218   12 -99.9  70.5 -999.9 -9.9 -9.999 -99.9 -99.99 -9.99
2019/05/21 01:36 EDT    2.01   2.36    9  221   11 -99.9  70.7 -999.9 -9.9 -9.999 -99.9 -99.99 -9.99
2019/05/21 01:42 EDT    1.93   2.30    9  227   11 -99.9  70.7 -999.9 -9.9 -9.999 -99.9 -99.99 -9.99
2019/05/21 01:48 EDT    1.86   2.18    8  237   10 -99.9  70.7 -999.9 -9.9 -9.999 -99.9 -99.99 -9.99
2019/05/21 01:54 EDT    1.78   2.09    7  249    9 -99.9  70.7 -999.9 -9.9 -9.999 -99.9 -99.99 -9.99
2019/05/21 02:00 EDT    1.69   2.01    6  276    8 -99.9  70.7 -999.9 -9.9 -9.999 -99.9 -99.99 -9.99
2019/05/21 02:06 EDT    1.61   1.92    4  294    6 -99.9  70.7 -999.9 -9.9 -9.999 -99.9 -99.99 -9.99
2019/05/21 02:12 EDT    1.53   1.85    4  297    5 -99.9  70.7 -999.9 -9.9 -9.999 -99.9 -99.99 -9.99
2019/05/21 02:18 EDT    1.45   1.78    6  311    7 -99.9  70.7 -999.9 -9.9 -9.999 -99.9 -99.99 -9.99
2019/05/21 02:24 EDT    1.37   1.68    6  298    8 -99.9  70.7 -999.9 -9.9 -9.999 -99.9 -99.99 -9.99
2019/05/21 02:30 EDT    1.29   1.58    7  303    9 -99.9  70.7 -999.9 -9.9 -9.999 -99.9 -99.99 -9.99
2019/05/21 02:36 EDT    1.21   1.52    8  322   10 -99.9  70.7 -999.9 -9.9 -9.999 -99.9 -99.99 -9.99
2019/05/21 02:42 EDT    1.14   1.42    7  316    8 -99.9  70.7 -999.9 -9.9 -9.999 -99.9 -99.99 -9.99
2019/05/21 02:48 EDT    1.06   1.32    6  311    9 -99.9  70.5 -999.9 -9.9 -9.999 -99.9 -99.99 -9.99
2019/05/21 02:54 EDT    0.99   1.23    6  316    8 -99.9  70.7 -999.9 -9.9 -9.999 -99.9 -99.99 -9.99
2019/05/21 03:00 EDT    0.91   1.17    6  305    7 -99.9  70.7 -999.9 -9.9 -9.999 -99.9 -99.99 -9.99
2019/05/21 03:06 EDT    0.84   1.10    6  300    8 -99.9  70.7 -999.9 -9.9 -9.999 -99.9 -99.99 -9.99
2019/05/21 03:12 EDT    0.77   1.06    8  304    9 -99.9  70.7 -999.9 -9.9 -9.999 -99.9 -99.99 -9.99
2019/05/21 03:18 EDT    0.71   0.99    7  308    8 -99.9  70.5 -999.9 -9.9 -9.999 -99.9 -99.99 -9.99
2019/05/21 03:24 EDT    0.64   0.93    6  320    8 -99.9  70.5 -999.9 -9.9 -9.999 -99.9 -99.99 -9.99
2019/05/21 03:30 EDT    0.58   0.86    7  315    8 -99.9  70.5 -999.9 -9.9 -9.999 -99.9 -99.99 -9.99
2019/05/21 03:36 EDT    0.52   0.80    7  317    9 -99.9  70.5 -999.9 -9.9 -9.999 -99.9 -99.99 -9.99
2019/05/21 03:42 EDT    0.46   0.75    5  330    8 -99.9  70.5 -999.9 -9.9 -9.999 -99.9 -99.99 -9.99
2019/05/21 03:48 EDT    0.41   0.71    5  342    6 -99.9  70.3 -999.9 -9.9 -9.999 -99.9 -99.99 -9.99
2019/05/21 03:54 EDT    0.36   0.66    6  339    8 -99.9  70.5 -999.9 -9.9 -9.999 -99.9 -99.99 -9.99
2019/05/21 04:00 EDT    0.31   0.61    6  352    7 -99.9  70.5 -999.9 -9.9 -9.999 -99.9 -99.99 -9.99
2019/05/21 04:06 EDT    0.26   0.55    6  350    8 -99.9  70.5 -999.9 -9.9 -9.999 -99.9 -99.99 -9.99
2019/05/21 04:12 EDT    0.22   0.53    6  336    7 -99.9  70.5 -999.9 -9.9 -9.999 -99.9 -99.99 -9.99
2019/05/21 04:18 EDT    0.18   0.50    7  332    8 -99.9  70.5 -999.9 -9.9 -9.999 -99.9 -99.99 -9.99
2019/05/21 04:24 EDT    0.14   0.47    7  334    8 -99.9  70.5 -999.9 -9.9 -9.999 -99.9 -99.99 -9.99
2019/05/21 04:30 EDT    0.11   0.43    7  345    8 -99.9  70.5 -999.9 -9.9 -9.999 -99.9 -99.99 -9.99
2019/05/21 04:36 EDT    0.08   0.41    8  357   10 -99.9  70.5 -999.9 -9.9 -9.999 -99.9 -99.99 -9.99
2019/05/21 04:42 EDT    0.05   0.39    8  354   10 -99.9  70.5 -999.9 -9.9 -9.999 -99.9 -99.99 -9.99
2019/05/21 04:48 EDT    0.03   0.37    6  358    8 -99.9  70.5 -999.9 -9.9 -9.999 -99.9 -99.99 -9.99
2019/05/21 04:54 EDT    0.01   0.34    5  359    7 -99.9  70.5 -999.9 -9.9 -9.999 -99.9 -99.99 -9.99
2019/05/21 05:00 EDT   -0.01   0.30    5    5    7 -99.9  70.5 -999.9 -9.9 -9.999 -99.9 -99.99 -9.99
2019/05/21 05:06 EDT   -0.02   0.27    5    7    7 -99.9  70.5 -999.9 -9.9 -9.999 -99.9 -99.99 -9.99
2019/05/21 05:12 EDT   -0.03   0.31    6   10    8 -99.9  70.7 -999.9 -9.9 -9.999 -99.9 -99.99 -9.99
2019/05/21 05:18 EDT   -0.04   0.31    5    8    6 -99.9  70.7 -999.9 -9.9 -9.999 -99.9 -99.99 -9.99
2019/05/21 05:24 EDT   -0.04   0.29    5    8    6 -99.9  70.7 -999.9 -9.9 -9.999 -99.9 -99.99 -9.99
2019/05/21 05:30 EDT   -0.04   0.29    6    5    7 -99.9  70.7 -999.9 -9.9 -9.999 -99.9 -99.99 -9.99
2019/05/21 05:36 EDT   -0.04   0.30    7    5    8 -99.9  70.7 -999.9 -9.9 -9.999 -99.9 -99.99 -9.99
2019/05/21 05:42 EDT   -0.03   0.35    8  360   11 -99.9  70.7 -999.9 -9.9 -9.999 -99.9 -99.99 -9.99
2019/05/21 05:48 EDT   -0.02   0.36    7    4   11 -99.9  70.7 -999.9 -9.9 -9.999 -99.9 -99.99 -9.99
2019/05/21 05:54 EDT   -0.01   0.37    7    8   10 -99.9  70.7 -999.9 -9.9 -9.999 -99.9 -99.99 -9.99
2019/05/21 06:00 EDT    0.01   0.39    6   13   12 -99.9  70.7 -999.9 -9.9 -9.999 -99.9 -99.99 -9.99
2019/05/21 06:06 EDT    0.03   0.40    8   12   12 -99.9  70.7 -999.9 -9.9 -9.999 -99.9 -99.99 -9.99
2019/05/21 06:12 EDT    0.05   0.41    5   26   11 -99.9  70.7 -999.9 -9.9 -9.999 -99.9 -99.99 -9.99
2019/05/21 06:18 EDT    0.08   0.45    8   16    9 -99.9  70.7 -999.9 -9.9 -9.999 -99.9 -99.99 -9.99
2019/05/21 06:24 EDT    0.11   0.47    6   16    8 -99.9  70.7 -999.9 -9.9 -9.999 -99.9 -99.99 -9.99
2019/05/21 06:30 EDT    0.15   0.51    7   14    8 -99.9  70.7 -999.9 -9.9 -9.999 -99.9 -99.99 -9.99
2019/05/21 06:36 EDT    0.19   0.53    7   10    8 -99.9  70.7 -999.9 -9.9 -9.999 -99.9 -99.99 -9.99
2019/05/21 06:42 EDT    0.23   0.57    6   17   10 -99.9  70.7 -999.9 -9.9 -9.999 -99.9 -99.99 -9.99
2019/05/21 06:48 EDT    0.27   0.60    7   20   11 -99.9  70.7 -999.9 -9.9 -9.999 -99.9 -99.99 -9.99
2019/05/21 06:54 EDT    0.32   0.62   10   11   14 -99.9  70.7 -999.9 -9.9 -9.999 -99.9 -99.99 -9.99
2019/05/21 07:00 EDT    0.37   0.70   13   12   16 -99.9  70.7 -999.9 -9.9 -9.999 -99.9 -99.99 -9.99
2019/05/21 07:06 EDT    0.42   0.73   11   14   17 -99.9  70.7 -999.9 -9.9 -9.999 -99.9 -99.99 -9.99
2019/05/21 07:12 EDT    0.48   0.79    9   16   16 -99.9  70.7 -999.9 -9.9 -9.999 -99.9 -99.99 -9.99
2019/05/21 07:18 EDT    0.54   0.86   11   12   15 -99.9  70.7 -999.9 -9.9 -9.999 -99.9 -99.99 -9.99
2019/05/21 07:24 EDT    0.60   0.88    8   19   11 -99.9  70.7 -999.9 -9.9 -9.999 -99.9 -99.99 -9.99
2019/05/21 07:30 EDT    0.66   0.96   10   15   14 -99.9  70.7 -999.9 -9.9 -9.999 -99.9 -99.99 -9.99
2019/05/21 07:36 EDT    0.73   1.03   10    9   12 -99.9  70.7 -999.9 -9.9 -9.999 -99.9 -99.99 -9.99
2019/05/21 07:42 EDT    0.80   1.06    7   18   15 -99.9  70.7 -999.9 -9.9 -9.999 -99.9 -99.99 -9.99
2019/05/21 07:48 EDT    0.86   1.14   10   26   15 -99.9  70.7 -999.9 -9.9 -9.999 -99.9 -99.99 -9.99
2019/05/21 07:54 EDT    0.93   1.21   12   11   17 -99.9  70.7 -999.9 -9.9 -9.999 -99.9 -99.99 -9.99
2019/05/21 08:00 EDT    1.00   1.29   11   18   14 -99.9  70.7 -999.9 -9.9 -9.999 -99.9 -99.99 -9.99
2019/05/21 08:06 EDT    1.07   1.37   11   16   15 -99.9  70.7 -999.9 -9.9 -9.999 -99.9 -99.99 -9.99
2019/05/21 08:12 EDT    1.15   1.48   10   24   16 -99.9  70.7 -999.9 -9.9 -9.999 -99.9 -99.99 -9.99
2019/05/21 08:18 EDT    1.22   1.55    7   13   12 -99.9  70.7 -999.9 -9.9 -9.999 -99.9 -99.99 -9.99
2019/05/21 08:24 EDT    1.29   1.62    8   12   16 -99.9  70.7 -999.9 -9.9 -9.999 -99.9 -99.99 -9.99
2019/05/21 08:30 EDT    1.36   1.71   10   28   13 -99.9  70.7 -999.9 -9.9 -9.999 -99.9 -99.99 -9.99
2019/05/21 08:36 EDT    1.43   1.78   15  360   18 -99.9  70.7 -999.9 -9.9 -9.999 -99.9 -99.99 -9.99
2019/05/21 08:42 EDT    1.50   1.83   11   12   17 -99.9  70.7 -999.9 -9.9 -9.999 -99.9 -99.99 -9.99
2019/05/21 08:48 EDT    1.57   1.91   14   11   19 -99.9  70.7 -999.9 -9.9 -9.999 -99.9 -99.99 -9.99
2019/05/21 08:54 EDT    1.64   1.97   10   14   17 -99.9  70.7 -999.9 -9.9 -9.999 -99.9 -99.99 -9.99
2019/05/21 09:00 EDT    1.70   2.06   13   15   19 -99.9  70.7 -999.9 -9.9 -9.999 -99.9 -99.99 -9.99
2019/05/21 09:06 EDT    1.77   2.13   13    4   18 -99.9  70.5 -999.9 -9.9 -9.999 -99.9 -99.99 -9.99
2019/05/21 09:12 EDT    1.83   2.21   11    5   16 -99.9  70.5 -999.9 -9.9 -9.999 -99.9 -99.99 -9.99
2019/05/21 09:18 EDT    1.89   2.28   12    1   17 -99.9  70.5 -999.9 -9.9 -9.999 -99.9 -99.99 -9.99
2019/05/21 09:24 EDT    1.95   2.35   11    8   18 -99.9  70.5 -999.9 -9.9 -9.999 -99.9 -99.99 -9.99
2019/05/21 09:30 EDT    2.00   2.44   15   18   23 -99.9  70.5 -999.9 -9.9 -9.999 -99.9 -99.99 -9.99
2019/05/21 09:36 EDT    2.06   2.50   18  355   21 -99.9  70.7 -999.9 -9.9 -9.999 -99.9 -99.99 -9.99
2019/05/21 09:42 EDT    2.11   2.57   17  348   22 -99.9  70.7 -999.9 -9.9 -9.999 -99.9 -99.99 -9.99
2019/05/21 09:48 EDT    2.15   2.61   11    0   19 -99.9  70.7 -999.9 -9.9 -9.999 -99.9 -99.99 -9.99
2019/05/21 09:54 EDT    2.20   2.64   14  360   17 -99.9  70.7 -999.9 -9.9 -9.999 -99.9 -99.99 -9.99
2019/05/21 10:00 EDT    2.24   2.65   14    1   22 -99.9  70.7 -999.9 -9.9 -9.999 -99.9 -99.99 -9.99
2019/05/21 10:06 EDT    2.28   2.69   14  350   19 -99.9  70.5 -999.9 -9.9 -9.999 -99.9 -99.99 -9.99
2019/05/21 10:12 EDT    2.31   2.71   16  356   24 -99.9  70.5 -999.9 -9.9 -9.999 -99.9 -99.99 -9.99
2019/05/21 10:18 EDT    2.35   2.74   17  347   24 -99.9  70.5 -999.9 -9.9 -9.999 -99.9 -99.99 -9.99
2019/05/21 10:24 EDT    2.38   2.76   18  348   22 -99.9  70.5 -999.9 -9.9 -9.999 -99.9 -99.99 -9.99
2019/05/21 10:30 EDT    2.40   2.80   16  343   21 -99.9  70.5 -999.9 -9.9 -9.999 -99.9 -99.99 -9.99
2019/05/21 10:36 EDT    2.43   2.83   19  348   22 -99.9  70.5 -999.9 -9.9 -9.999 -99.9 -99.99 -9.99
2019/05/21 10:42 EDT    2.45   2.85   17  357   21 -99.9  70.3 -999.9 -9.9 -9.999 -99.9 -99.99 -9.99
2019/05/21 10:48 EDT    2.46   2.86   15  356   20 -99.9  70.3 -999.9 -9.9 -9.999 -99.9 -99.99 -9.99
2019/05/21 10:54 EDT    2.48   2.86   16  353   21 -99.9  70.2 -999.9 -9.9 -9.999 -99.9 -99.99 -9.99
2019/05/21 11:00 EDT    2.49   2.87   13   11   25 -99.9  70.2 -999.9 -9.9 -9.999 -99.9 -99.99 -9.99
2019/05/21 11:06 EDT    2.49   2.88   17  356   22 -99.9  70.2 -999.9 -9.9 -9.999 -99.9 -99.99 -9.99
2019/05/21 11:12 EDT    2.50   2.86   13  359   22 -99.9  70.2 -999.9 -9.9 -9.999 -99.9 -99.99 -9.99
2019/05/21 11:18 EDT    2.50   2.85   18  349   21 -99.9  70.2 -999.9 -9.9 -9.999 -99.9 -99.99 -9.99
2019/05/21 11:24 EDT    2.50   2.84   15    2   24 -99.9  70.2 -999.9 -9.9 -9.999 -99.9 -99.99 -9.99
2019/05/21 11:30 EDT    2.50   2.83   13  355   22 -99.9  70.2 -999.9 -9.9 -9.999 -99.9 -99.99 -9.99
2019/05/21 11:36 EDT    2.49   2.85   13    6   17 -99.9  70.2 -999.9 -9.9 -9.999 -99.9 -99.99 -9.99
2019/05/21 11:42 EDT    2.48   2.82    9   17   17 -99.9  70.2 -999.9 -9.9 -9.999 -99.9 -99.99 -9.99
2019/05/21 11:48 EDT    2.46   2.82   13  355   16 -99.9  70.3 -999.9 -9.9 -9.999 -99.9 -99.99 -9.99
2019/05/21 11:54 EDT    2.45   2.79   13   18   17 -99.9  70.3 -999.9 -9.9 -9.999 -99.9 -99.99 -9.99
2019/05/21 12:00 EDT    2.43   2.78   10   19   15 -99.9  70.3 -999.9 -9.9 -9.999 -99.9 -99.99 -9.99
2019/05/21 12:06 EDT    2.41   2.75    9   28   14 -99.9  70.5 -999.9 -9.9 -9.999 -99.9 -99.99 -9.99
2019/05/21 12:12 EDT    2.38   2.72   11   24   15 -99.9  70.7 -999.9 -9.9 -9.999 -99.9 -99.99 -9.99
2019/05/21 12:18 EDT    2.35   2.68   11   15   15 -99.9  70.7 -999.9 -9.9 -9.999 -99.9 -99.99 -9.99
2019/05/21 12:24 EDT    2.32   2.65   13   11   16 -99.9  70.9 -999.9 -9.9 -9.999 -99.9 -99.99 -9.99
2019/05/21 12:30 EDT    2.29   2.61    6  344   15 -99.9  70.9 -999.9 -9.9 -9.999 -99.9 -99.99 -9.99
2019/05/21 12:36 EDT    2.25   2.57   12  338   16 -99.9  70.9 -999.9 -9.9 -9.999 -99.9 -99.99 -9.99
2019/05/21 12:42 EDT    2.21   2.55    8   10   15 -99.9  71.1 -999.9 -9.9 -9.999 -99.9 -99.99 -9.99
2019/05/21 12:48 EDT    2.17   2.53   11  360   15 -99.9  71.1 -999.9 -9.9 -9.999 -99.9 -99.99 -9.99
2019/05/21 12:54 EDT    2.13   2.48   10  349   12 -99.9  71.1 -999.9 -9.9 -9.999 -99.9 -99.99 -9.99
2019/05/21 13:00 EDT    2.08   2.41   10    6   15 -99.9  71.1 -999.9 -9.9 -9.999 -99.9 -99.99 -9.99
2019/05/21 13:06 EDT    2.03   2.38    8    4   13 -99.9  71.1 -999.9 -9.9 -9.999 -99.9 -99.99 -9.99
2019/05/21 13:12 EDT    1.98   2.31   10    9   17 -99.9  71.2 -999.9 -9.9 -9.999 -99.9 -99.99 -9.99
2019/05/21 13:18 EDT    1.93   2.28    9    4   13 -99.9  71.2 -999.9 -9.9 -9.999 -99.9 -99.99 -9.99
2019/05/21 13:24 EDT    1.87   2.23   10    8   16 -99.9  71.2 -999.9 -9.9 -9.999 -99.9 -99.99 -9.99
2019/05/21 13:30 EDT    1.82   2.18    9    4   14 -99.9  71.2 -999.9 -9.9 -9.999 -99.9 -99.99 -9.99
2019/05/21 13:36 EDT    1.76   2.11    9  352   15 -99.9  71.1 -999.9 -9.9 -9.999 -99.9 -99.99 -9.99
2019/05/21 13:42 EDT    1.70   2.04   11  344   13 -99.9  71.1 -999.9 -9.9 -9.999 -99.9 -99.99 -9.99
2019/05/21 13:48 EDT    1.63   1.98   10    2   15 -99.9  71.1 -999.9 -9.9 -9.999 -99.9 -99.99 -9.99
2019/05/21 13:54 EDT    1.57   1.92    7    0   13 -99.9  71.1 -999.9 -9.9 -9.999 -99.9 -99.99 -9.99
2019/05/21 14:00 EDT    1.51   1.84   10  341   14 -99.9  71.2 -999.9 -9.9 -9.999 -99.9 -99.99 -9.99
2019/05/21 14:06 EDT    1.44   1.78    8   11   12 -99.9  71.2 -999.9 -9.9 -9.999 -99.9 -99.99 -9.99
2019/05/21 14:12 EDT    1.38   1.72   11  342   15 -99.9  71.2 -999.9 -9.9 -9.999 -99.9 -99.99 -9.99
2019/05/21 14:18 EDT    1.31   1.65    9    4   16 -99.9  71.2 -999.9 -9.9 -9.999 -99.9 -99.99 -9.99
2019/05/21 14:24 EDT    1.25   1.58   10  358   16 -99.9  71.2 -999.9 -9.9 -9.999 -99.9 -99.99 -9.99
2019/05/21 14:30 EDT    1.18   1.52   12  357   15 -99.9  71.4 -999.9 -9.9 -9.999 -99.9 -99.99 -9.99
2019/05/21 14:36 EDT    1.11   1.47    9  351   13 -99.9  71.4 -999.9 -9.9 -9.999 -99.9 -99.99 -9.99
2019/05/21 14:42 EDT    1.05   1.38    8  357   14 -99.9  71.6 -999.9 -9.9 -9.999 -99.9 -99.99 -9.99
2019/05/21 14:48 EDT    0.99   1.30   12    3   15 -99.9  71.8 -999.9 -9.9 -9.999 -99.9 -99.99 -9.99
2019/05/21 14:54 EDT    0.92   1.24   10    2   13 -99.9  71.8 -999.9 -9.9 -9.999 -99.9 -99.99 -9.99
2019/05/21 15:00 EDT    0.86   1.18   11  356   16 -99.9  71.8 -999.9 -9.9 -9.999 -99.9 -99.99 -9.99
2019/05/21 15:06 EDT    0.80   1.13   10    6   15 -99.9  71.8 -999.9 -9.9 -9.999 -99.9 -99.99 -9.99
2019/05/21 15:12 EDT    0.74   1.07   11    4   15 -99.9  71.8 -999.9 -9.9 -9.999 -99.9 -99.99 -9.99
2019/05/21 15:18 EDT    0.68   1.02   11  353   17 -99.9  71.8 -999.9 -9.9 -9.999 -99.9 -99.99 -9.99
2019/05/21 15:24 EDT    0.63   0.98   10   11   15 -99.9  71.8 -999.9 -9.9 -9.999 -99.9 -99.99 -9.99
2019/05/21 15:30 EDT    0.58   0.93    9    7   13 -99.9  71.8 -999.9 -9.9 -9.999 -99.9 -99.99 -9.99
2019/05/21 15:36 EDT    0.53   0.90   10  345   13 -99.9  71.8 -999.9 -9.9 -9.999 -99.9 -99.99 -9.99
2019/05/21 15:42 EDT    0.48   0.84   10   11   13 -99.9  71.8 -999.9 -9.9 -9.999 -99.9 -99.99 -9.99
2019/05/21 15:48 EDT    0.43   0.80   12  358   16 -99.9  71.8 -999.9 -9.9 -9.999 -99.9 -99.99 -9.99
2019/05/21 15:54 EDT    0.39   0.74   11   10   17 -99.9  71.8 -999.9 -9.9 -9.999 -99.9 -99.99 -9.99
2019/05/21 16:00 EDT    0.35   0.74   12    3   16 -99.9  71.8 -999.9 -9.9 -9.999 -99.9 -99.99 -9.99
2019/05/21 16:06 EDT    0.31   0.71   13    6   18 -99.9  71.8 -999.9 -9.9 -9.999 -99.9 -99.99 -9.99
2019/05/21 16:12 EDT    0.28   0.67   10    1   17 -99.9  72.0 -999.9 -9.9 -9.999 -99.9 -99.99 -9.99
2019/05/21 16:18 EDT    0.24   0.64   11    7   15 -99.9  72.0 -999.9 -9.9 -9.999 -99.9 -99.99 -9.99
2019/05/21 16:24 EDT    0.22   0.60   10    9   14 -99.9  72.0 -999.9 -9.9 -9.999 -99.9 -99.99 -9.99
2019/05/21 16:30 EDT    0.19   0.58    8    5   12 -99.9  72.0 -999.9 -9.9 -9.999 -99.9 -99.99 -9.99
2019/05/21 16:36 EDT    0.17   0.55    9    4   15 -99.9  72.0 -999.9 -9.9 -9.999 -99.9 -99.99 -9.99
2019/05/21 16:42 EDT    0.15   0.52   10   27   14 -99.9  72.0 -999.9 -9.9 -9.999 -99.9 -99.99 -9.99
2019/05/21 16:48 EDT    0.13   0.49    9   24   13 -99.9  72.0 -999.9 -9.9 -9.999 -99.9 -99.99 -9.99
2019/05/21 16:54 EDT    0.12   0.46    9   19   13 -99.9  72.0 -999.9 -9.9 -9.999 -99.9 -99.99 -9.99
2019/05/21 17:00 EDT    0.11   0.46   10   14   13 -99.9  72.0 -999.9 -9.9 -9.999 -99.9 -99.99 -9.99
2019/05/21 17:06 EDT    0.10   0.48    9    2   12 -99.9  71.8 -999.9 -9.9 -9.999 -99.9 -99.99 -9.99
2019/05/21 17:12 EDT    0.10   0.47    7   16   11 -99.9  71.8 -999.9 -9.9 -9.999 -99.9 -99.99 -9.99
2019/05/21 17:18 EDT    0.10   0.46   10  358   15 -99.9  71.6 -999.9 -9.9 -9.999 -99.9 -99.99 -9.99
2019/05/21 17:24 EDT    0.10   0.46    9   15   15 -99.9  71.6 -999.9 -9.9 -9.999 -99.9 -99.99 -9.99
2019/05/21 17:30 EDT    0.11   0.47    9    4   16 -99.9  71.4 -999.9 -9.9 -9.999 -99.9 -99.99 -9.99
2019/05/21 17:36 EDT    0.12   0.49   11   13   16 -99.9  71.4 -999.9 -9.9 -9.999 -99.9 -99.99 -9.99
2019/05/21 17:42 EDT    0.13   0.52   10   18   14 -99.9  71.4 -999.9 -9.9 -9.999 -99.9 -99.99 -9.99
2019/05/21 17:48 EDT    0.15   0.55   10    7   14 -99.9  71.4 -999.9 -9.9 -9.999 -99.9 -99.99 -9.99
2019/05/21 17:54 EDT    0.16   0.55   10   19   13 -99.9  71.4 -999.9 -9.9 -9.999 -99.9 -99.99 -9.99
2019/05/21 18:00 EDT    0.19   0.60   10    6   14 -99.9  71.6 -999.9 -9.9 -9.999 -99.9 -99.99 -9.99
2019/05/21 18:06 EDT    0.21   0.60   11    4   14 -99.9  71.8 -999.9 -9.9 -9.999 -99.9 -99.99 -9.99
2019/05/21 18:12 EDT    0.24   0.65    9    6   16 -99.9  71.8 -999.9 -9.9 -9.999 -99.9 -99.99 -9.99
2019/05/21 18:18 EDT    0.27   0.66    8   12   12 -99.9  71.8 -999.9 -9.9 -9.999 -99.9 -99.99 -9.99
2019/05/21 18:24 EDT    0.31   0.71   11    2   15 -99.9  71.8 -999.9 -9.9 -9.999 -99.9 -99.99 -9.99
2019/05/21 18:30 EDT    0.35   0.76   11   14   15 -99.9  71.6 -999.9 -9.9 -9.999 -99.9 -99.99 -9.99
2019/05/21 18:36 EDT    0.39   0.77   10   28   14 -99.9  71.8 -999.9 -9.9 -9.999 -99.9 -99.99 -9.99
2019/05/21 18:42 EDT    0.43   0.82   10   27   15 -99.9  71.8 -999.9 -9.9 -9.999 -99.9 -99.99 -9.99
2019/05/21 18:48 EDT    0.48   0.87   10   20   14 -99.9  71.8 -999.9 -9.9 -9.999 -99.9 -99.99 -9.99
2019/05/21 18:54 EDT    0.53   0.95    8   12   12 -99.9  71.8 -999.9 -9.9 -9.999 -99.9 -99.99 -9.99
2019/05/21 19:00 EDT    0.58   1.02    9   24   14 -99.9  71.8 -999.9 -9.9 -9.999 -99.9 -99.99 -9.99
2019/05/21 19:06 EDT    0.64   1.07    8   30   13 -99.9  71.6 -999.9 -9.9 -9.999 -99.9 -99.99 -9.99
2019/05/21 19:12 EDT    0.70   1.09   10   21   14 -99.9  71.6 -999.9 -9.9 -9.999 -99.9 -99.99 -9.99
2019/05/21 19:18 EDT    0.76   1.18    8   18   13 -99.9  71.6 -999.9 -9.9 -9.999 -99.9 -99.99 -9.99
2019/05/21 19:24 EDT    0.83   1.21   10   23   12 -99.9  71.8 -999.9 -9.9 -9.999 -99.9 -99.99 -9.99
2019/05/21 19:30 EDT    0.89   1.28   10   23   13 -99.9  71.8 -999.9 -9.9 -9.999 -99.9 -99.99 -9.99
2019/05/21 19:36 EDT    0.96   1.36    8   18   12 -99.9  71.8 -999.9 -9.9 -9.999 -99.9 -99.99 -9.99
2019/05/21 19:42 EDT    1.03   1.42    8   24   11 -99.9  71.8 -999.9 -9.9 -9.999 -99.9 -99.99 -9.99
2019/05/21 19:48 EDT    1.10   1.45    9   26   11 -99.9  71.8 -999.9 -9.9 -9.999 -99.9 -99.99 -9.99
2019/05/21 19:54 EDT    1.18   1.55    6   19   11 -99.9  71.8 -999.9 -9.9 -9.999 -99.9 -99.99 -9.99
2019/05/21 20:00 EDT    1.25   1.64    6   22   12 -99.9  71.8 -999.9 -9.9 -9.999 -99.9 -99.99 -9.99
2019/05/21 20:06 EDT    1.33   1.71    7   22   10 -99.9  71.8 -999.9 -9.9 -9.999 -99.9 -99.99 -9.99
2019/05/21 20:12 EDT    1.41   1.81    6   25    9 -99.9  71.8 -999.9 -9.9 -9.999 -99.9 -99.99 -9.99
2019/05/21 20:18 EDT    1.48   1.89    6   26    8 -99.9  71.8 -999.9 -9.9 -9.999 -99.9 -99.99 -9.99
2019/05/21 20:24 EDT    1.56   1.93    6   29    8 -99.9  71.8 -999.9 -9.9 -9.999 -99.9 -99.99 -9.99
2019/05/21 20:30 EDT    1.64   1.98    5   30    7 -99.9  71.8 -999.9 -9.9 -9.999 -99.9 -99.99 -9.99
2019/05/21 20:36 EDT    1.72   2.07    3   39    7 -99.9  71.8 -999.9 -9.9 -9.999 -99.9 -99.99 -9.99
2019/05/21 20:42 EDT    1.80   2.15    3   36    4 -99.9  71.8 -999.9 -9.9 -9.999 -99.9 -99.99 -9.99
2019/05/21 20:48 EDT    1.88   2.20    4   38    4 -99.9  71.8 -999.9 -9.9 -9.999 -99.9 -99.99 -9.99
2019/05/21 20:54 EDT    1.95   2.28    3   37    5 -99.9  71.8 -999.9 -9.9 -9.999 -99.9 -99.99 -9.99
2019/05/21 21:00 EDT    2.03   2.32    3   32    4 -99.9  71.8 -999.9 -9.9 -9.999 -99.9 -99.99 -9.99
2019/05/21 21:06 EDT    2.10   2.39    4   38    5 -99.9  71.8 -999.9 -9.9 -9.999 -99.9 -99.99 -9.99
2019/05/21 21:12 EDT    2.18   2.45    4   26    4 -99.9  71.8 -999.9 -9.9 -9.999 -99.9 -99.99 -9.99
2019/05/21 21:18 EDT    2.25   2.52    4   27    5 -99.9  71.8 -999.9 -9.9 -9.999 -99.9 -99.99 -9.99
2019/05/21 21:24 EDT    2.32   2.57    4   28    6 -99.9  71.8 -999.9 -9.9 -9.999 -99.9 -99.99 -9.99
2019/05/21 21:30 EDT    2.38   2.65    5   31    7 -99.9  71.8 -999.9 -9.9 -9.999 -99.9 -99.99 -9.99
2019/05/21 21:36 EDT    2.45   2.71    5   37    7 -99.9  71.8 -999.9 -9.9 -9.999 -99.9 -99.99 -9.99
2019/05/21 21:42 EDT    2.51   2.79    4   41    6 -99.9  71.8 -999.9 -9.9 -9.999 -99.9 -99.99 -9.99
2019/05/21 21:48 EDT    2.57   2.84    4   53    5 -99.9  71.8 -999.9 -9.9 -9.999 -99.9 -99.99 -9.99
2019/05/21 21:54 EDT    2.62   2.89    4   42    5 -99.9  71.8 -999.9 -9.9 -9.999 -99.9 -99.99 -9.99
2019/05/21 22:00 EDT    2.68   2.94    3   41    5 -99.9  71.8 -999.9 -9.9 -9.999 -99.9 -99.99 -9.99
2019/05/21 22:06 EDT    2.73   3.00    3   36    4 -99.9  71.8 -999.9 -9.9 -9.999 -99.9 -99.99 -9.99
2019/05/21 22:12 EDT    2.77   3.04    3   32    4 -99.9  71.8 -999.9 -9.9 -9.999 -99.9 -99.99 -9.99
2019/05/21 22:18 EDT    2.82   3.05    4   25    4 -99.9  71.6 -999.9 -9.9 -9.999 -99.9 -99.99 -9.99
2019/05/21 22:24 EDT    2.86   3.11    3   24    4 -99.9  71.6 -999.9 -9.9 -9.999 -99.9 -99.99 -9.99
2019/05/21 22:30 EDT    2.90   3.17    2   37    3 -99.9  71.6 -999.9 -9.9 -9.999 -99.9 -99.99 -9.99
2019/05/21 22:36 EDT    2.93   3.20    3   39    5 -99.9  71.6 -999.9 -9.9 -9.999 -99.9 -99.99 -9.99
2019/05/21 22:42 EDT    2.96   3.24    3   28    5 -99.9  71.6 -999.9 -9.9 -9.999 -99.9 -99.99 -9.99
2019/05/21 22:48 EDT    2.99   3.27    3   35    4 -99.9  71.6 -999.9 -9.9 -9.999 -99.9 -99.99 -9.99
2019/05/21 22:54 EDT    3.01 -99.99 -999 -999 -999 -99.9 -99.9 -999.9 -9.9 -9.999 -99.9 -99.99 -9.99
2019/05/21 23:00 EDT    3.03 -99.99 -999 -999 -999 -99.9 -99.9 -999.9 -9.9 -9.999 -99.9 -99.99 -9.99
2019/05/21 23:06 EDT    3.05 -99.99 -999 -999 -999 -99.9 -99.9 -999.9 -9.9 -9.999 -99.9 -99.99 -9.99

Revised: 08/08/2018
NOAA / National Ocean Service
Web site owner: Center for Operational Oceanographic Products and Services